<?xml version="1.0" encoding="UTF-8"?><gpx xmlns="http://www.topografix.com/GPX/1/1" xmlns:xsi="http://www.w3.org/2001/XMLSchema-instance" creator="komoot gpx writer" version="1.1" xsi:schemaLocation="http://www.topografix.com/GPX/1/1 http://www.topografix.com/GPX/1/1/gpx.xsd">

	<metadata>
		<name>Habstetten-Luterbach-Flugbrunnen</name>
		<desc/>
		<link href="http://www.komoot.de">
			<text>komoot homepage</text>
			<type>text/html</type>
		</link>
	</metadata>
	
<trk>
<name>Habstetten-Luterbach-Flugbrunnen</name>
<trkseg>
<trkpt lat="46.95721201855922" lon="7.433068732677904">
<ele>555.969482421875</ele>
<time>2014-06-01T19:06:22Z</time>
</trkpt>
<trkpt lat="46.95746201855922" lon="7.433551732677904">
<ele>556.548482421875</ele>
<time>2014-06-01T19:06:32Z</time>
</trkpt>
<trkpt lat="46.95752601855922" lon="7.433675732677903">
<ele>556.6594824218749</ele>
<time>2014-06-01T19:06:34Z</time>
</trkpt>
<trkpt lat="46.957542018559224" lon="7.433707732677903">
<ele>556.6694824218749</ele>
<time>2014-06-01T19:06:35Z</time>
</trkpt>
<trkpt lat="46.95773401855922" lon="7.434098732677903">
<ele>556.899482421875</ele>
<time>2014-06-01T19:06:41Z</time>
</trkpt>
<trkpt lat="46.95705901855922" lon="7.435017732677903">
<ele>553.379482421875</ele>
<time>2014-06-01T19:06:53Z</time>
</trkpt>
<trkpt lat="46.95673101855922" lon="7.435387732677903">
<ele>551.729482421875</ele>
<time>2014-06-01T19:06:59Z</time>
</trkpt>
<trkpt lat="46.95642101855922" lon="7.435706732677903">
<ele>551.109482421875</ele>
<time>2014-06-01T19:07:05Z</time>
</trkpt>
<trkpt lat="46.95641201855922" lon="7.435717732677903">
<ele>551.099482421875</ele>
<time>2014-06-01T19:07:05Z</time>
</trkpt>
<trkpt lat="46.95608101855922" lon="7.436083732677902">
<ele>549.669482421875</ele>
<time>2014-06-01T19:07:10Z</time>
</trkpt>
<trkpt lat="46.956265018559215" lon="7.436560732677902">
<ele>547.539482421875</ele>
<time>2014-06-01T19:07:15Z</time>
</trkpt>
<trkpt lat="46.95628401855922" lon="7.4366057326779025">
<ele>547.3694824218751</ele>
<time>2014-06-01T19:07:15Z</time>
</trkpt>
<trkpt lat="46.95672001855922" lon="7.437726732677903">
<ele>531.0194824218751</ele>
<time>2014-06-01T19:07:24Z</time>
</trkpt>
<trkpt lat="46.956594018559215" lon="7.437850732677902">
<ele>528.5894824218751</ele>
<time>2014-06-01T19:07:26Z</time>
</trkpt>
<trkpt lat="46.956645018559215" lon="7.437976732677902">
<ele>526.3894824218751</ele>
<time>2014-06-01T19:07:27Z</time>
</trkpt>
<trkpt lat="46.95665801855922" lon="7.438004732677903">
<ele>525.8894824218751</ele>
<time>2014-06-01T19:07:27Z</time>
</trkpt>
<trkpt lat="46.95670601855922" lon="7.438044732677903">
<ele>525.2494824218751</ele>
<time>2014-06-01T19:07:28Z</time>
</trkpt>
<trkpt lat="46.95714201855922" lon="7.438186732677903">
<ele>523.2984824218751</ele>
<time>2014-06-01T19:07:33Z</time>
</trkpt>
<trkpt lat="46.95734901855922" lon="7.4382907326779035">
<ele>521.6184824218751</ele>
<time>2014-06-01T19:07:35Z</time>
</trkpt>
<trkpt lat="46.95782101855922" lon="7.438726732677903">
<ele>512.6784824218751</ele>
<time>2014-06-01T19:07:41Z</time>
</trkpt>
<trkpt lat="46.958121018559225" lon="7.439022732677903">
<ele>506.70948242187507</ele>
<time>2014-06-01T19:07:45Z</time>
</trkpt>
<trkpt lat="46.95818801855923" lon="7.439089732677902">
<ele>505.40948242187505</ele>
<time>2014-06-01T19:07:46Z</time>
</trkpt>
<trkpt lat="46.958445018559225" lon="7.439330732677902">
<ele>503.1394824218751</ele>
<time>2014-06-01T19:07:50Z</time>
</trkpt>
<trkpt lat="46.95877901855923" lon="7.439527732677902">
<ele>502.30848242187506</ele>
<time>2014-06-01T19:07:55Z</time>
</trkpt>
<trkpt lat="46.95881201855923" lon="7.439593732677903">
<ele>501.76848242187504</ele>
<time>2014-06-01T19:07:55Z</time>
</trkpt>
<trkpt lat="46.95880901855923" lon="7.4396177326779025">
<ele>501.52948242187506</ele>
<time>2014-06-01T19:07:55Z</time>
</trkpt>
<trkpt lat="46.95880401855923" lon="7.4396557326779025">
<ele>501.17948242187504</ele>
<time>2014-06-01T19:07:56Z</time>
</trkpt>
<trkpt lat="46.958932018559224" lon="7.439710732677902">
<ele>500.829482421875</ele>
<time>2014-06-01T19:07:58Z</time>
</trkpt>
<trkpt lat="46.959326018559224" lon="7.439880732677902">
<ele>499.608482421875</ele>
<time>2014-06-01T19:08:03Z</time>
</trkpt>
<trkpt lat="46.959585018559224" lon="7.439991732677902">
<ele>498.609482421875</ele>
<time>2014-06-01T19:08:06Z</time>
</trkpt>
<trkpt lat="46.95967301855922" lon="7.440029732677902">
<ele>498.548482421875</ele>
<time>2014-06-01T19:08:08Z</time>
</trkpt>
<trkpt lat="46.960181018559226" lon="7.440213732677902">
<ele>499.129482421875</ele>
<time>2014-06-01T19:08:20Z</time>
</trkpt>
<trkpt lat="46.96041601855923" lon="7.440305732677903">
<ele>499.529482421875</ele>
<time>2014-06-01T19:08:25Z</time>
</trkpt>
<trkpt lat="46.96095401855923" lon="7.440603732677903">
<ele>499.028482421875</ele>
<time>2014-06-01T19:08:34Z</time>
</trkpt>
<trkpt lat="46.961304018559225" lon="7.440750732677903">
<ele>498.48948242187504</ele>
<time>2014-06-01T19:08:39Z</time>
</trkpt>
<trkpt lat="46.96179201855922" lon="7.440998732677903">
<ele>498.009482421875</ele>
<time>2014-06-01T19:08:48Z</time>
</trkpt>
<trkpt lat="46.96232201855922" lon="7.441241732677903">
<ele>497.91948242187505</ele>
<time>2014-06-01T19:08:56Z</time>
</trkpt>
<trkpt lat="46.96256601855922" lon="7.441385732677903">
<ele>497.55848242187506</ele>
<time>2014-06-01T19:09:00Z</time>
</trkpt>
<trkpt lat="46.96297201855922" lon="7.441627732677903">
<ele>496.8794824218751</ele>
<time>2014-06-01T19:09:07Z</time>
</trkpt>
<trkpt lat="46.96306401855922" lon="7.441717732677903">
<ele>496.67848242187506</ele>
<time>2014-06-01T19:09:09Z</time>
</trkpt>
<trkpt lat="46.96330401855922" lon="7.441913732677903">
<ele>496.6994824218751</ele>
<time>2014-06-01T19:09:14Z</time>
</trkpt>
<trkpt lat="46.96358601855922" lon="7.442129732677903">
<ele>496.57948242187507</ele>
<time>2014-06-01T19:09:19Z</time>
</trkpt>
<trkpt lat="46.96433001855922" lon="7.442645732677903">
<ele>496.29848242187506</ele>
<time>2014-06-01T19:09:36Z</time>
</trkpt>
<trkpt lat="46.964691018559215" lon="7.442854732677903">
<ele>496.5184824218751</ele>
<time>2014-06-01T19:09:44Z</time>
</trkpt>
<trkpt lat="46.96505801855921" lon="7.443030732677903">
<ele>496.4094824218751</ele>
<time>2014-06-01T19:09:52Z</time>
</trkpt>
<trkpt lat="46.96553901855921" lon="7.443227732677903">
<ele>496.2894824218751</ele>
<time>2014-06-01T19:10:03Z</time>
</trkpt>
<trkpt lat="46.96645201855921" lon="7.443546732677903">
<ele>496.5484824218751</ele>
<time>2014-06-01T19:10:22Z</time>
</trkpt>
<trkpt lat="46.96687001855921" lon="7.443662732677903">
<ele>497.5784824218751</ele>
<time>2014-06-01T19:10:31Z</time>
</trkpt>
<trkpt lat="46.96734601855921" lon="7.443743732677903">
<ele>499.3894824218751</ele>
<time>2014-06-01T19:10:41Z</time>
</trkpt>
<trkpt lat="46.96759601855921" lon="7.4437667326779025">
<ele>500.4994824218751</ele>
<time>2014-06-01T19:10:46Z</time>
</trkpt>
<trkpt lat="46.967849018559214" lon="7.4438117326779025">
<ele>501.6994824218751</ele>
<time>2014-06-01T19:10:53Z</time>
</trkpt>
<trkpt lat="46.96815101855921" lon="7.443889732677903">
<ele>502.6294824218751</ele>
<time>2014-06-01T19:11:01Z</time>
</trkpt>
<trkpt lat="46.96826101855921" lon="7.443930732677903">
<ele>502.7294824218751</ele>
<time>2014-06-01T19:11:05Z</time>
</trkpt>
<trkpt lat="46.96846101855921" lon="7.444003732677904">
<ele>503.38948242187513</ele>
<time>2014-06-01T19:11:10Z</time>
</trkpt>
<trkpt lat="46.96867101855921" lon="7.4441107326779035">
<ele>503.7384824218751</ele>
<time>2014-06-01T19:11:15Z</time>
</trkpt>
<trkpt lat="46.968893018559214" lon="7.444251732677904">
<ele>504.0184824218751</ele>
<time>2014-06-01T19:11:21Z</time>
</trkpt>
<trkpt lat="46.96906601855921" lon="7.444373732677904">
<ele>504.2894824218751</ele>
<time>2014-06-01T19:11:25Z</time>
</trkpt>
<trkpt lat="46.96926401855921" lon="7.4445307326779036">
<ele>504.4194824218751</ele>
<time>2014-06-01T19:11:29Z</time>
</trkpt>
<trkpt lat="46.96998701855921" lon="7.445195732677903">
<ele>502.5184824218751</ele>
<time>2014-06-01T19:11:42Z</time>
</trkpt>
<trkpt lat="46.97080501855921" lon="7.446003732677903">
<ele>500.0784824218751</ele>
<time>2014-06-01T19:11:57Z</time>
</trkpt>
<trkpt lat="46.97111101855921" lon="7.446403732677903">
<ele>500.5394824218751</ele>
<time>2014-06-01T19:12:03Z</time>
</trkpt>
<trkpt lat="46.97143601855921" lon="7.446964732677904">
<ele>498.9194824218751</ele>
<time>2014-06-01T19:12:11Z</time>
</trkpt>
<trkpt lat="46.97154401855921" lon="7.447178732677903">
<ele>498.6594824218751</ele>
<time>2014-06-01T19:12:14Z</time>
</trkpt>
<trkpt lat="46.97155501855921" lon="7.447206732677904">
<ele>498.6084824218751</ele>
<time>2014-06-01T19:12:14Z</time>
</trkpt>
<trkpt lat="46.97190001855921" lon="7.448030732677903">
<ele>498.52848242187514</ele>
<time>2014-06-01T19:12:25Z</time>
</trkpt>
<trkpt lat="46.97209401855921" lon="7.448502732677904">
<ele>498.25948242187513</ele>
<time>2014-06-01T19:12:31Z</time>
</trkpt>
<trkpt lat="46.97215101855921" lon="7.448636732677904">
<ele>498.32848242187515</ele>
<time>2014-06-01T19:12:34Z</time>
</trkpt>
<trkpt lat="46.97225001855921" lon="7.448871732677904">
<ele>498.3994824218752</ele>
<time>2014-06-01T19:12:37Z</time>
</trkpt>
<trkpt lat="46.97230001855921" lon="7.448989732677903">
<ele>498.40948242187517</ele>
<time>2014-06-01T19:12:39Z</time>
</trkpt>
<trkpt lat="46.97274501855921" lon="7.450042732677903">
<ele>500.26848242187515</ele>
<time>2014-06-01T19:12:59Z</time>
</trkpt>
<trkpt lat="46.97320401855921" lon="7.451021732677903">
<ele>501.84948242187517</ele>
<time>2014-06-01T19:13:19Z</time>
</trkpt>
<trkpt lat="46.97325901855921" lon="7.451136732677903">
<ele>502.09948242187517</ele>
<time>2014-06-01T19:13:21Z</time>
</trkpt>
<trkpt lat="46.97322301855921" lon="7.451201732677903">
<ele>501.7594824218752</ele>
<time>2014-06-01T19:13:22Z</time>
</trkpt>
<trkpt lat="46.97321901855921" lon="7.451275732677903">
<ele>501.6484824218752</ele>
<time>2014-06-01T19:13:23Z</time>
</trkpt>
<trkpt lat="46.973238018559215" lon="7.4513227326779035">
<ele>501.7294824218752</ele>
<time>2014-06-01T19:13:23Z</time>
</trkpt>
<trkpt lat="46.97324801855922" lon="7.451345732677903">
<ele>501.7684824218752</ele>
<time>2014-06-01T19:13:24Z</time>
</trkpt>
<trkpt lat="46.973314018559215" lon="7.451376732677903">
<ele>502.2084824218752</ele>
<time>2014-06-01T19:13:27Z</time>
</trkpt>
<trkpt lat="46.97335501855922" lon="7.451357732677903">
<ele>502.9994824218752</ele>
<time>2014-06-01T19:13:29Z</time>
</trkpt>
<trkpt lat="46.97340601855922" lon="7.451481732677903">
<ele>504.2784824218752</ele>
<time>2014-06-01T19:13:35Z</time>
</trkpt>
<trkpt lat="46.97363401855922" lon="7.452054732677903">
<ele>510.1394824218752</ele>
<time>2014-06-01T19:14:02Z</time>
</trkpt>
<trkpt lat="46.973683018559214" lon="7.452177732677903">
<ele>511.40948242187517</ele>
<time>2014-06-01T19:14:08Z</time>
</trkpt>
<trkpt lat="46.97371701855921" lon="7.452151732677903">
<ele>512.3084824218752</ele>
<time>2014-06-01T19:14:10Z</time>
</trkpt>
<trkpt lat="46.97427801855921" lon="7.453507732677903">
<ele>526.6894824218751</ele>
<time>2014-06-01T19:14:49Z</time>
</trkpt>
<trkpt lat="46.974924018559214" lon="7.455148732677904">
<ele>532.8394824218751</ele>
<time>2014-06-01T19:15:37Z</time>
</trkpt>
<trkpt lat="46.97509601855921" lon="7.455525732677904">
<ele>532.4394824218751</ele>
<time>2014-06-01T19:15:48Z</time>
</trkpt>
<trkpt lat="46.975219018559216" lon="7.455738732677903">
<ele>531.4684824218751</ele>
<time>2014-06-01T19:15:55Z</time>
</trkpt>
<trkpt lat="46.975382018559216" lon="7.4559487326779035">
<ele>530.2884824218752</ele>
<time>2014-06-01T19:16:03Z</time>
</trkpt>
<trkpt lat="46.97566301855922" lon="7.4562217326779034">
<ele>528.3084824218752</ele>
<time>2014-06-01T19:16:15Z</time>
</trkpt>
<trkpt lat="46.97577201855922" lon="7.456294732677904">
<ele>527.5984824218751</ele>
<time>2014-06-01T19:16:19Z</time>
</trkpt>
<trkpt lat="46.975855018559216" lon="7.456346732677904">
<ele>526.5694824218751</ele>
<time>2014-06-01T19:16:23Z</time>
</trkpt>
<trkpt lat="46.97590501855922" lon="7.456377732677904">
<ele>525.1184824218751</ele>
<time>2014-06-01T19:16:23Z</time>
</trkpt>
<trkpt lat="46.97594601855922" lon="7.456397732677904">
<ele>523.9594824218751</ele>
<time>2014-06-01T19:16:24Z</time>
</trkpt>
<trkpt lat="46.97599101855922" lon="7.4564197326779045">
<ele>522.6684824218751</ele>
<time>2014-06-01T19:16:24Z</time>
</trkpt>
<trkpt lat="46.97632101855922" lon="7.4565727326779045">
<ele>513.3794824218751</ele>
<time>2014-06-01T19:16:28Z</time>
</trkpt>
<trkpt lat="46.97633301855922" lon="7.456664732677905">
<ele>512.808482421875</ele>
<time>2014-06-01T19:16:29Z</time>
</trkpt>
<trkpt lat="46.976353018559216" lon="7.456669732677905">
<ele>512.2594824218751</ele>
<time>2014-06-01T19:16:29Z</time>
</trkpt>
<trkpt lat="46.976939018559214" lon="7.456836732677905">
<ele>499.65948242187505</ele>
<time>2014-06-01T19:16:35Z</time>
</trkpt>
<trkpt lat="46.97721301855921" lon="7.456920732677905">
<ele>495.80848242187506</ele>
<time>2014-06-01T19:16:38Z</time>
</trkpt>
<trkpt lat="46.97760701855921" lon="7.457044732677905">
<ele>492.2594824218751</ele>
<time>2014-06-01T19:16:42Z</time>
</trkpt>
<trkpt lat="46.97777001855921" lon="7.457075732677905">
<ele>492.6484824218751</ele>
<time>2014-06-01T19:16:49Z</time>
</trkpt>
<trkpt lat="46.978301018559215" lon="7.457073732677904">
<ele>493.9194824218751</ele>
<time>2014-06-01T19:17:10Z</time>
</trkpt>
<trkpt lat="46.97897501855921" lon="7.457006732677905">
<ele>499.2494824218751</ele>
<time>2014-06-01T19:17:36Z</time>
</trkpt>
<trkpt lat="46.97961701855921" lon="7.456977732677905">
<ele>506.5594824218751</ele>
<time>2014-06-01T19:18:02Z</time>
</trkpt>
<trkpt lat="46.97990001855921" lon="7.456949732677905">
<ele>510.0784824218751</ele>
<time>2014-06-01T19:18:17Z</time>
</trkpt>
<trkpt lat="46.98049501855921" lon="7.456895732677904">
<ele>515.8484824218751</ele>
<time>2014-06-01T19:18:49Z</time>
</trkpt>
<trkpt lat="46.98059801855921" lon="7.456898732677905">
<ele>516.8594824218751</ele>
<time>2014-06-01T19:18:54Z</time>
</trkpt>
<trkpt lat="46.98062201855922" lon="7.456970732677905">
<ele>517.4284824218751</ele>
<time>2014-06-01T19:18:56Z</time>
</trkpt>
<trkpt lat="46.980673018559216" lon="7.457016732677905">
<ele>518.1394824218751</ele>
<time>2014-06-01T19:18:59Z</time>
</trkpt>
<trkpt lat="46.98074001855922" lon="7.457002732677905">
<ele>518.7284824218751</ele>
<time>2014-06-01T19:19:01Z</time>
</trkpt>
<trkpt lat="46.980783018559215" lon="7.456943732677905">
<ele>518.8484824218751</ele>
<time>2014-06-01T19:19:04Z</time>
</trkpt>
<trkpt lat="46.98079601855922" lon="7.456872732677905">
<ele>518.6294824218751</ele>
<time>2014-06-01T19:19:06Z</time>
</trkpt>
<trkpt lat="46.98093401855922" lon="7.456849732677905">
<ele>519.0984824218751</ele>
<time>2014-06-01T19:19:08Z</time>
</trkpt>
<trkpt lat="46.982342018559216" lon="7.456740732677905">
<ele>517.8394824218751</ele>
<time>2014-06-01T19:19:30Z</time>
</trkpt>
<trkpt lat="46.98246501855922" lon="7.456757732677905">
<ele>517.4494824218751</ele>
<time>2014-06-01T19:19:32Z</time>
</trkpt>
<trkpt lat="46.982728018559214" lon="7.456871732677905">
<ele>516.7794824218752</ele>
<time>2014-06-01T19:19:36Z</time>
</trkpt>
<trkpt lat="46.98277501855922" lon="7.456898732677905">
<ele>516.6994824218751</ele>
<time>2014-06-01T19:19:37Z</time>
</trkpt>
<trkpt lat="46.98271201855922" lon="7.457198732677905">
<ele>518.2194824218751</ele>
<time>2014-06-01T19:19:46Z</time>
</trkpt>
<trkpt lat="46.98266801855922" lon="7.457406732677905">
<ele>519.2184824218751</ele>
<time>2014-06-01T19:19:51Z</time>
</trkpt>
<trkpt lat="46.98268101855922" lon="7.457516732677905">
<ele>519.6094824218751</ele>
<time>2014-06-01T19:19:54Z</time>
</trkpt>
<trkpt lat="46.98273701855922" lon="7.457520732677905">
<ele>519.4894824218751</ele>
<time>2014-06-01T19:19:55Z</time>
</trkpt>
<trkpt lat="46.98283801855922" lon="7.457527732677905">
<ele>519.2694824218751</ele>
<time>2014-06-01T19:19:56Z</time>
</trkpt>
<trkpt lat="46.98287801855922" lon="7.457529732677905">
<ele>519.1784824218751</ele>
<time>2014-06-01T19:19:57Z</time>
</trkpt>
<trkpt lat="46.98291801855922" lon="7.457620732677905">
<ele>519.358482421875</ele>
<time>2014-06-01T19:19:59Z</time>
</trkpt>
<trkpt lat="46.98292101855922" lon="7.457662732677905">
<ele>519.478482421875</ele>
<time>2014-06-01T19:20:00Z</time>
</trkpt>
<trkpt lat="46.98289301855922" lon="7.457740732677905">
<ele>519.7694824218751</ele>
<time>2014-06-01T19:20:02Z</time>
</trkpt>
<trkpt lat="46.982717018559214" lon="7.4579967326779055">
<ele>520.829482421875</ele>
<time>2014-06-01T19:20:11Z</time>
</trkpt>
<trkpt lat="46.982610018559214" lon="7.458228732677905">
<ele>521.598482421875</ele>
<time>2014-06-01T19:20:17Z</time>
</trkpt>
<trkpt lat="46.98256801855921" lon="7.458380732677905">
<ele>522.0294824218751</ele>
<time>2014-06-01T19:20:21Z</time>
</trkpt>
<trkpt lat="46.98253301855922" lon="7.458514732677905">
<ele>522.3994824218751</ele>
<time>2014-06-01T19:20:24Z</time>
</trkpt>
<trkpt lat="46.98244201855922" lon="7.459070732677905">
<ele>524.1784824218751</ele>
<time>2014-06-01T19:20:37Z</time>
</trkpt>
<trkpt lat="46.982207018559215" lon="7.459795732677905">
<ele>528.1494824218751</ele>
<time>2014-06-01T19:20:56Z</time>
</trkpt>
<trkpt lat="46.98217801855922" lon="7.459985732677905">
<ele>529.0484824218751</ele>
<time>2014-06-01T19:21:00Z</time>
</trkpt>
<trkpt lat="46.98218301855922" lon="7.460307732677904">
<ele>529.9184824218751</ele>
<time>2014-06-01T19:21:08Z</time>
</trkpt>
<trkpt lat="46.98221301855922" lon="7.460413732677904">
<ele>529.919482421875</ele>
<time>2014-06-01T19:21:11Z</time>
</trkpt>
<trkpt lat="46.98216601855922" lon="7.460472732677904">
<ele>530.558482421875</ele>
<time>2014-06-01T19:21:16Z</time>
</trkpt>
<trkpt lat="46.98214601855922" lon="7.460491732677904">
<ele>531.1484824218751</ele>
<time>2014-06-01T19:21:19Z</time>
</trkpt>
<trkpt lat="46.98216601855922" lon="7.460472732677904">
<ele>530.558482421875</ele>
<time>2014-06-01T19:21:21Z</time>
</trkpt>
<trkpt lat="46.98221301855922" lon="7.460413732677904">
<ele>529.919482421875</ele>
<time>2014-06-01T19:21:27Z</time>
</trkpt>
<trkpt lat="46.98238201855922" lon="7.460725732677904">
<ele>528.9994824218751</ele>
<time>2014-06-01T19:21:31Z</time>
</trkpt>
<trkpt lat="46.98251801855922" lon="7.460985732677904">
<ele>528.1394824218751</ele>
<time>2014-06-01T19:21:34Z</time>
</trkpt>
<trkpt lat="46.98267501855922" lon="7.4611667326779045">
<ele>528.058482421875</ele>
<time>2014-06-01T19:21:37Z</time>
</trkpt>
<trkpt lat="46.98275401855922" lon="7.461284732677904">
<ele>528.0994824218751</ele>
<time>2014-06-01T19:21:39Z</time>
</trkpt>
<trkpt lat="46.98283801855922" lon="7.461374732677904">
<ele>528.0984824218751</ele>
<time>2014-06-01T19:21:42Z</time>
</trkpt>
<trkpt lat="46.98298101855922" lon="7.461472732677905">
<ele>528.0584824218752</ele>
<time>2014-06-01T19:21:46Z</time>
</trkpt>
<trkpt lat="46.98307401855922" lon="7.4614967326779045">
<ele>527.9684824218751</ele>
<time>2014-06-01T19:21:49Z</time>
</trkpt>
<trkpt lat="46.98344401855922" lon="7.461513732677904">
<ele>528.5894824218751</ele>
<time>2014-06-01T19:21:59Z</time>
</trkpt>
<trkpt lat="46.98373401855922" lon="7.461488732677904">
<ele>531.0384824218751</ele>
<time>2014-06-01T19:22:07Z</time>
</trkpt>
<trkpt lat="46.98382301855922" lon="7.461484732677905">
<ele>531.809482421875</ele>
<time>2014-06-01T19:22:10Z</time>
</trkpt>
<trkpt lat="46.98394101855922" lon="7.461502732677904">
<ele>532.858482421875</ele>
<time>2014-06-01T19:22:15Z</time>
</trkpt>
<trkpt lat="46.98408501855922" lon="7.461562732677905">
<ele>534.1784824218751</ele>
<time>2014-06-01T19:22:21Z</time>
</trkpt>
<trkpt lat="46.98421901855922" lon="7.461620732677905">
<ele>535.2694824218751</ele>
<time>2014-06-01T19:22:27Z</time>
</trkpt>
<trkpt lat="46.98437401855922" lon="7.461699732677905">
<ele>536.2794824218751</ele>
<time>2014-06-01T19:22:31Z</time>
</trkpt>
<trkpt lat="46.98581001855922" lon="7.462506732677905">
<ele>539.9994824218751</ele>
<time>2014-06-01T19:23:04Z</time>
</trkpt>
<trkpt lat="46.98595401855922" lon="7.462544732677905">
<ele>539.9994824218751</ele>
<time>2014-06-01T19:23:07Z</time>
</trkpt>
<trkpt lat="46.98609001855922" lon="7.462537732677905">
<ele>539.9994824218751</ele>
<time>2014-06-01T19:23:10Z</time>
</trkpt>
<trkpt lat="46.987453018559215" lon="7.461906732677905">
<ele>539.9994824218751</ele>
<time>2014-06-01T19:23:41Z</time>
</trkpt>
<trkpt lat="46.987825018559214" lon="7.461746732677905">
<ele>539.9994824218751</ele>
<time>2014-06-01T19:23:49Z</time>
</trkpt>
<trkpt lat="46.98801101855921" lon="7.461612732677905">
<ele>539.9994824218751</ele>
<time>2014-06-01T19:23:53Z</time>
</trkpt>
<trkpt lat="46.988171018559214" lon="7.461531732677905">
<ele>539.9994824218751</ele>
<time>2014-06-01T19:23:56Z</time>
</trkpt>
<trkpt lat="46.98827601855921" lon="7.461503732677905">
<ele>539.9994824218751</ele>
<time>2014-06-01T19:23:58Z</time>
</trkpt>
<trkpt lat="46.98842501855921" lon="7.461499732677905">
<ele>539.9994824218751</ele>
<time>2014-06-01T19:24:01Z</time>
</trkpt>
<trkpt lat="46.98849301855921" lon="7.461568732677905">
<ele>539.9994824218751</ele>
<time>2014-06-01T19:24:02Z</time>
</trkpt>
<trkpt lat="46.98861801855921" lon="7.461986732677905">
<ele>539.9994824218751</ele>
<time>2014-06-01T19:24:07Z</time>
</trkpt>
<trkpt lat="46.988898018559205" lon="7.462820732677905">
<ele>539.9994824218751</ele>
<time>2014-06-01T19:24:19Z</time>
</trkpt>
<trkpt lat="46.988954018559205" lon="7.4628947326779045">
<ele>539.9994824218751</ele>
<time>2014-06-01T19:24:20Z</time>
</trkpt>
<trkpt lat="46.9890420185592" lon="7.462934732677905">
<ele>539.9994824218751</ele>
<time>2014-06-01T19:24:22Z</time>
</trkpt>
<trkpt lat="46.98912801855921" lon="7.462938732677904">
<ele>539.9994824218751</ele>
<time>2014-06-01T19:24:23Z</time>
</trkpt>
<trkpt lat="46.98920001855921" lon="7.462917732677904">
<ele>539.9994824218751</ele>
<time>2014-06-01T19:24:24Z</time>
</trkpt>
<trkpt lat="46.98928101855921" lon="7.4628627326779045">
<ele>539.9994824218751</ele>
<time>2014-06-01T19:24:26Z</time>
</trkpt>
<trkpt lat="46.98989501855921" lon="7.464728732677904">
<ele>540.669482421875</ele>
<time>2014-06-01T19:24:54Z</time>
</trkpt>
<trkpt lat="46.99011501855921" lon="7.465319732677904">
<ele>542.618482421875</ele>
<time>2014-06-01T19:25:11Z</time>
</trkpt>
<trkpt lat="46.99015401855921" lon="7.4657857326779045">
<ele>544.779482421875</ele>
<time>2014-06-01T19:25:22Z</time>
</trkpt>
<trkpt lat="46.99016201855921" lon="7.465880732677904">
<ele>545.229482421875</ele>
<time>2014-06-01T19:25:25Z</time>
</trkpt>
<trkpt lat="46.99021101855921" lon="7.466464732677904">
<ele>548.029482421875</ele>
<time>2014-06-01T19:25:41Z</time>
</trkpt>
<trkpt lat="46.990716018559205" lon="7.467776732677905">
<ele>554.279482421875</ele>
<time>2014-06-01T19:26:21Z</time>
</trkpt>
<trkpt lat="46.9906750185592" lon="7.467845732677905">
<ele>554.5794824218749</ele>
<time>2014-06-01T19:26:23Z</time>
</trkpt>
<trkpt lat="46.9905120185592" lon="7.468065732677904">
<ele>555.4594824218749</ele>
<time>2014-06-01T19:26:29Z</time>
</trkpt>
<trkpt lat="46.9900490185592" lon="7.468546732677904">
<ele>557.3394824218749</ele>
<time>2014-06-01T19:26:44Z</time>
</trkpt>
<trkpt lat="46.989676018559194" lon="7.469077732677904">
<ele>560.1184824218749</ele>
<time>2014-06-01T19:26:58Z</time>
</trkpt>
<trkpt lat="46.989031018559196" lon="7.470088732677904">
<ele>562.7094824218749</ele>
<time>2014-06-01T19:27:23Z</time>
</trkpt>
<trkpt lat="46.9888580185592" lon="7.470458732677904">
<ele>562.7144824218749</ele>
<time>2014-06-01T19:27:31Z</time>
</trkpt>
<trkpt lat="46.9886530185592" lon="7.470898732677904">
<ele>562.7184824218749</ele>
<time>2014-06-01T19:27:40Z</time>
</trkpt>
<trkpt lat="46.9883820185592" lon="7.471284732677904">
<ele>562.3484824218749</ele>
<time>2014-06-01T19:27:50Z</time>
</trkpt>
<trkpt lat="46.9883070185592" lon="7.471363732677904">
<ele>562.0994824218749</ele>
<time>2014-06-01T19:27:53Z</time>
</trkpt>
<trkpt lat="46.9883600185592" lon="7.471454732677905">
<ele>562.6394824218748</ele>
<time>2014-06-01T19:27:56Z</time>
</trkpt>
<trkpt lat="46.9883830185592" lon="7.471426732677904">
<ele>562.7094824218749</ele>
<time>2014-06-01T19:27:57Z</time>
</trkpt>
<trkpt lat="46.9887180185592" lon="7.4722987326779045">
<ele>566.7694824218748</ele>
<time>2014-06-01T19:28:29Z</time>
</trkpt>
<trkpt lat="46.9888860185592" lon="7.4728007326779045">
<ele>569.5984824218748</ele>
<time>2014-06-01T19:28:47Z</time>
</trkpt>
<trkpt lat="46.9891150185592" lon="7.473572732677905">
<ele>574.1194824218747</ele>
<time>2014-06-01T19:29:14Z</time>
</trkpt>
<trkpt lat="46.989408018559196" lon="7.474461732677905">
<ele>578.1584824218747</ele>
<time>2014-06-01T19:29:44Z</time>
</trkpt>
<trkpt lat="46.98960601855919" lon="7.474926732677905">
<ele>580.4594824218748</ele>
<time>2014-06-01T19:30:00Z</time>
</trkpt>
<trkpt lat="46.98972501855919" lon="7.475076732677905">
<ele>581.3494824218748</ele>
<time>2014-06-01T19:30:15Z</time>
</trkpt>
<trkpt lat="46.989662018559194" lon="7.475144732677904">
<ele>580.9694824218748</ele>
<time>2014-06-01T19:30:16Z</time>
</trkpt>
<trkpt lat="46.98919901855919" lon="7.475627732677904">
<ele>578.1994824218748</ele>
<time>2014-06-01T19:30:26Z</time>
</trkpt>
<trkpt lat="46.98912101855919" lon="7.475706732677905">
<ele>577.7694824218748</ele>
<time>2014-06-01T19:30:27Z</time>
</trkpt>
<trkpt lat="46.98903101855919" lon="7.475840732677905">
<ele>577.3584824218749</ele>
<time>2014-06-01T19:30:30Z</time>
</trkpt>
<trkpt lat="46.98898101855919" lon="7.475994732677905">
<ele>577.3084824218749</ele>
<time>2014-06-01T19:30:32Z</time>
</trkpt>
<trkpt lat="46.98897201855919" lon="7.476054732677905">
<ele>577.3294824218749</ele>
<time>2014-06-01T19:30:33Z</time>
</trkpt>
<trkpt lat="46.98896801855919" lon="7.476117732677905">
<ele>577.3894824218748</ele>
<time>2014-06-01T19:30:34Z</time>
</trkpt>
<trkpt lat="46.98898001855919" lon="7.476235732677905">
<ele>577.5894824218749</ele>
<time>2014-06-01T19:30:37Z</time>
</trkpt>
<trkpt lat="46.98900401855919" lon="7.476330732677905">
<ele>577.8194824218749</ele>
<time>2014-06-01T19:30:39Z</time>
</trkpt>
<trkpt lat="46.98905301855919" lon="7.476516732677905">
<ele>578.279482421875</ele>
<time>2014-06-01T19:30:44Z</time>
</trkpt>
<trkpt lat="46.98911801855919" lon="7.476759732677905">
<ele>578.779482421875</ele>
<time>2014-06-01T19:30:50Z</time>
</trkpt>
<trkpt lat="46.98916801855919" lon="7.4769447326779055">
<ele>579.009482421875</ele>
<time>2014-06-01T19:30:54Z</time>
</trkpt>
<trkpt lat="46.98939601855919" lon="7.477697732677905">
<ele>580.1594824218749</ele>
<time>2014-06-01T19:31:11Z</time>
</trkpt>
<trkpt lat="46.98949701855919" lon="7.478048732677905">
<ele>580.8484824218749</ele>
<time>2014-06-01T19:31:20Z</time>
</trkpt>
<trkpt lat="46.98958101855919" lon="7.478181732677905">
<ele>581.389482421875</ele>
<time>2014-06-01T19:31:25Z</time>
</trkpt>
<trkpt lat="46.98966901855919" lon="7.4782287326779056">
<ele>581.9394824218749</ele>
<time>2014-06-01T19:31:28Z</time>
</trkpt>
<trkpt lat="46.98971201855919" lon="7.478239732677905">
<ele>582.1994824218749</ele>
<time>2014-06-01T19:31:30Z</time>
</trkpt>
<trkpt lat="46.98969101855919" lon="7.478319732677905">
<ele>582.139482421875</ele>
<time>2014-06-01T19:31:31Z</time>
</trkpt>
<trkpt lat="46.98966301855919" lon="7.4784057326779045">
<ele>582.129482421875</ele>
<time>2014-06-01T19:31:32Z</time>
</trkpt>
<trkpt lat="46.98949101855919" lon="7.478694732677905">
<ele>581.449482421875</ele>
<time>2014-06-01T19:31:37Z</time>
</trkpt>
<trkpt lat="46.98939301855919" lon="7.478746732677905">
<ele>580.759482421875</ele>
<time>2014-06-01T19:31:38Z</time>
</trkpt>
<trkpt lat="46.98937001855919" lon="7.478849732677905">
<ele>580.678482421875</ele>
<time>2014-06-01T19:31:43Z</time>
</trkpt>
<trkpt lat="46.98927401855919" lon="7.479362732677905">
<ele>581.178482421875</ele>
<time>2014-06-01T19:32:04Z</time>
</trkpt>
<trkpt lat="46.98906901855919" lon="7.480306732677905">
<ele>587.9394824218749</ele>
<time>2014-06-01T19:32:44Z</time>
</trkpt>
<trkpt lat="46.98891101855919" lon="7.481250732677904">
<ele>600.3084824218749</ele>
<time>2014-06-01T19:33:24Z</time>
</trkpt>
<trkpt lat="46.98881601855919" lon="7.481794732677904">
<ele>608.859482421875</ele>
<time>2014-06-01T19:33:47Z</time>
</trkpt>
<trkpt lat="46.98966401855919" lon="7.482146732677904">
<ele>605.718482421875</ele>
<time>2014-06-01T19:34:12Z</time>
</trkpt>
<trkpt lat="46.99020101855919" lon="7.482347732677904">
<ele>608.0484824218751</ele>
<time>2014-06-01T19:34:27Z</time>
</trkpt>
<trkpt lat="46.99036101855919" lon="7.482431732677904">
<ele>609.3694824218751</ele>
<time>2014-06-01T19:34:32Z</time>
</trkpt>
<trkpt lat="46.99020101855919" lon="7.482347732677904">
<ele>608.0484824218751</ele>
<time>2014-06-01T19:34:36Z</time>
</trkpt>
<trkpt lat="46.98966401855919" lon="7.482146732677904">
<ele>605.718482421875</ele>
<time>2014-06-01T19:34:47Z</time>
</trkpt>
<trkpt lat="46.98881601855919" lon="7.481794732677904">
<ele>608.859482421875</ele>
<time>2014-06-01T19:35:04Z</time>
</trkpt>
<trkpt lat="46.98869201855919" lon="7.482428732677904">
<ele>619.618482421875</ele>
<time>2014-06-01T19:35:31Z</time>
</trkpt>
<trkpt lat="46.98856001855919" lon="7.482984732677903">
<ele>627.259482421875</ele>
<time>2014-06-01T19:35:55Z</time>
</trkpt>
<trkpt lat="46.98839601855919" lon="7.483499732677903">
<ele>632.7184824218749</ele>
<time>2014-06-01T19:36:19Z</time>
</trkpt>
<trkpt lat="46.988015018559196" lon="7.483911732677903">
<ele>638.8084824218749</ele>
<time>2014-06-01T19:36:47Z</time>
</trkpt>
<trkpt lat="46.987447018559195" lon="7.484426732677903">
<ele>643.019482421875</ele>
<time>2014-06-01T19:37:27Z</time>
</trkpt>
<trkpt lat="46.987140018559195" lon="7.484694732677903">
<ele>646.4094824218749</ele>
<time>2014-06-01T19:37:48Z</time>
</trkpt>
<trkpt lat="46.986783018559194" lon="7.485121732677904">
<ele>646.2184824218749</ele>
<time>2014-06-01T19:37:55Z</time>
</trkpt>
<trkpt lat="46.9867680185592" lon="7.485323732677903">
<ele>643.8084824218749</ele>
<time>2014-06-01T19:37:57Z</time>
</trkpt>
<trkpt lat="46.98677501855919" lon="7.4853437326779035">
<ele>643.509482421875</ele>
<time>2014-06-01T19:37:58Z</time>
</trkpt>
<trkpt lat="46.986799018559196" lon="7.485458732677904">
<ele>641.999482421875</ele>
<time>2014-06-01T19:37:58Z</time>
</trkpt>
<trkpt lat="46.986867018559195" lon="7.4855217326779036">
<ele>641.118482421875</ele>
<time>2014-06-01T19:38:00Z</time>
</trkpt>
<trkpt lat="46.9870860185592" lon="7.485530732677904">
<ele>640.669482421875</ele>
<time>2014-06-01T19:38:04Z</time>
</trkpt>
<trkpt lat="46.987089018559196" lon="7.485525732677904">
<ele>640.699482421875</ele>
<time>2014-06-01T19:38:04Z</time>
</trkpt>
<trkpt lat="46.98767001855919" lon="7.485300732677904">
<ele>641.808482421875</ele>
<time>2014-06-01T19:38:26Z</time>
</trkpt>
<trkpt lat="46.98813701855919" lon="7.485215732677903">
<ele>646.1684824218751</ele>
<time>2014-06-01T19:38:43Z</time>
</trkpt>
<trkpt lat="46.98838801855919" lon="7.4851397326779034">
<ele>648.2194824218751</ele>
<time>2014-06-01T19:38:53Z</time>
</trkpt>
<trkpt lat="46.988801018559194" lon="7.484950732677904">
<ele>651.3234824218752</ele>
<time>2014-06-01T19:39:13Z</time>
</trkpt>
<trkpt lat="46.98838801855919" lon="7.4851397326779034">
<ele>648.2194824218751</ele>
<time>2014-06-01T19:39:18Z</time>
</trkpt>
<trkpt lat="46.98813701855919" lon="7.485215732677903">
<ele>646.1684824218751</ele>
<time>2014-06-01T19:39:21Z</time>
</trkpt>
<trkpt lat="46.98767001855919" lon="7.485300732677904">
<ele>641.808482421875</ele>
<time>2014-06-01T19:39:27Z</time>
</trkpt>
<trkpt lat="46.987089018559196" lon="7.485525732677904">
<ele>640.699482421875</ele>
<time>2014-06-01T19:39:35Z</time>
</trkpt>
<trkpt lat="46.9870860185592" lon="7.485530732677904">
<ele>640.669482421875</ele>
<time>2014-06-01T19:39:35Z</time>
</trkpt>
<trkpt lat="46.986921018559194" lon="7.485782732677904">
<ele>638.4184824218751</ele>
<time>2014-06-01T19:39:37Z</time>
</trkpt>
<trkpt lat="46.986650018559196" lon="7.486276732677903">
<ele>632.6584824218751</ele>
<time>2014-06-01T19:39:42Z</time>
</trkpt>
<trkpt lat="46.9866070185592" lon="7.486356732677903">
<ele>631.659482421875</ele>
<time>2014-06-01T19:39:42Z</time>
</trkpt>
<trkpt lat="46.9865550185592" lon="7.486473732677903">
<ele>630.118482421875</ele>
<time>2014-06-01T19:39:44Z</time>
</trkpt>
<trkpt lat="46.986419018559204" lon="7.486791732677903">
<ele>626.728482421875</ele>
<time>2014-06-01T19:39:46Z</time>
</trkpt>
<trkpt lat="46.98632201855921" lon="7.4870207326779035">
<ele>625.499482421875</ele>
<time>2014-06-01T19:39:48Z</time>
</trkpt>
<trkpt lat="46.986115018559204" lon="7.487558732677903">
<ele>622.819482421875</ele>
<time>2014-06-01T19:39:56Z</time>
</trkpt>
<trkpt lat="46.985974018559205" lon="7.487786732677903">
<ele>621.6394824218751</ele>
<time>2014-06-01T19:40:00Z</time>
</trkpt>
<trkpt lat="46.985757018559205" lon="7.4880627326779035">
<ele>619.9994824218751</ele>
<time>2014-06-01T19:40:05Z</time>
</trkpt>
<trkpt lat="46.98554501855921" lon="7.488381732677904">
<ele>620.2094824218751</ele>
<time>2014-06-01T19:40:11Z</time>
</trkpt>
<trkpt lat="46.985293018559204" lon="7.4888767326779035">
<ele>620.9494824218751</ele>
<time>2014-06-01T19:40:18Z</time>
</trkpt>
<trkpt lat="46.985118018559206" lon="7.489462732677904">
<ele>621.0094824218751</ele>
<time>2014-06-01T19:40:26Z</time>
</trkpt>
<trkpt lat="46.98503801855921" lon="7.490055732677904">
<ele>621.6784824218751</ele>
<time>2014-06-01T19:40:34Z</time>
</trkpt>
<trkpt lat="46.98502601855921" lon="7.490356732677904">
<ele>621.8994824218751</ele>
<time>2014-06-01T19:40:38Z</time>
</trkpt>
<trkpt lat="46.98501201855921" lon="7.490922732677904">
<ele>622.6684824218751</ele>
<time>2014-06-01T19:40:46Z</time>
</trkpt>
<trkpt lat="46.98499801855921" lon="7.491080732677904">
<ele>623.1584824218751</ele>
<time>2014-06-01T19:40:48Z</time>
</trkpt>
<trkpt lat="46.98495701855921" lon="7.491227732677904">
<ele>623.218482421875</ele>
<time>2014-06-01T19:40:51Z</time>
</trkpt>
<trkpt lat="46.984651018559205" lon="7.4918127326779045">
<ele>621.339482421875</ele>
<time>2014-06-01T19:41:01Z</time>
</trkpt>
<trkpt lat="46.98454601855921" lon="7.492119732677905">
<ele>621.389482421875</ele>
<time>2014-06-01T19:41:06Z</time>
</trkpt>
<trkpt lat="46.98451501855921" lon="7.492316732677905">
<ele>622.009482421875</ele>
<time>2014-06-01T19:41:09Z</time>
</trkpt>
<trkpt lat="46.98432801855921" lon="7.494612732677905">
<ele>627.9394824218749</ele>
<time>2014-06-01T19:41:43Z</time>
</trkpt>
<trkpt lat="46.98427301855921" lon="7.495156732677905">
<ele>628.4784824218749</ele>
<time>2014-06-01T19:41:52Z</time>
</trkpt>
<trkpt lat="46.984111018559204" lon="7.496003732677905">
<ele>626.2184824218749</ele>
<time>2014-06-01T19:42:05Z</time>
</trkpt>
<trkpt lat="46.9840610185592" lon="7.496696732677905">
<ele>625.149482421875</ele>
<time>2014-06-01T19:42:15Z</time>
</trkpt>
<trkpt lat="46.983953018559205" lon="7.497348732677905">
<ele>625.019482421875</ele>
<time>2014-06-01T19:42:25Z</time>
</trkpt>
<trkpt lat="46.9839600185592" lon="7.497762732677905">
<ele>626.8484824218749</ele>
<time>2014-06-01T19:42:37Z</time>
</trkpt>
<trkpt lat="46.984004018559204" lon="7.498051732677905">
<ele>628.9394824218749</ele>
<time>2014-06-01T19:42:46Z</time>
</trkpt>
<trkpt lat="46.984803018559205" lon="7.498751732677905">
<ele>639.4694824218749</ele>
<time>2014-06-01T19:43:35Z</time>
</trkpt>
<trkpt lat="46.98477101855921" lon="7.498953732677905">
<ele>640.2694824218748</ele>
<time>2014-06-01T19:43:39Z</time>
</trkpt>
<trkpt lat="46.98461901855921" lon="7.4993557326779055">
<ele>641.0384824218748</ele>
<time>2014-06-01T19:43:48Z</time>
</trkpt>
<trkpt lat="46.98443201855921" lon="7.499820732677906">
<ele>641.7994824218748</ele>
<time>2014-06-01T19:43:58Z</time>
</trkpt>
<trkpt lat="46.984338018559214" lon="7.500053732677905">
<ele>642.2284824218748</ele>
<time>2014-06-01T19:44:05Z</time>
</trkpt>
<trkpt lat="46.98426001855921" lon="7.500408732677905">
<ele>643.0294824218748</ele>
<time>2014-06-01T19:44:14Z</time>
</trkpt>
<trkpt lat="46.98420701855921" lon="7.500903732677905">
<ele>644.5794824218748</ele>
<time>2014-06-01T19:44:26Z</time>
</trkpt>
<trkpt lat="46.98432501855921" lon="7.501645732677905">
<ele>648.6684824218748</ele>
<time>2014-06-01T19:44:45Z</time>
</trkpt>
<trkpt lat="46.98443301855921" lon="7.502110732677905">
<ele>650.8794824218749</ele>
<time>2014-06-01T19:44:58Z</time>
</trkpt>
<trkpt lat="46.98450401855921" lon="7.5026537326779055">
<ele>653.1794824218748</ele>
<time>2014-06-01T19:45:13Z</time>
</trkpt>
<trkpt lat="46.98453701855921" lon="7.502908732677906">
<ele>654.2494824218749</ele>
<time>2014-06-01T19:45:21Z</time>
</trkpt>
<trkpt lat="46.98447501855921" lon="7.504110732677906">
<ele>659.5584824218748</ele>
<time>2014-06-01T19:46:00Z</time>
</trkpt>
<trkpt lat="46.98457301855921" lon="7.505128732677906">
<ele>667.0094824218748</ele>
<time>2014-06-01T19:46:34Z</time>
</trkpt>
<trkpt lat="46.98467201855921" lon="7.505790732677906">
<ele>673.2884824218748</ele>
<time>2014-06-01T19:46:56Z</time>
</trkpt>
<trkpt lat="46.98478501855921" lon="7.506077732677906">
<ele>676.5894824218749</ele>
<time>2014-06-01T19:47:06Z</time>
</trkpt>
<trkpt lat="46.98486301855921" lon="7.506172732677906">
<ele>677.928482421875</ele>
<time>2014-06-01T19:47:11Z</time>
</trkpt>
<trkpt lat="46.98579701855921" lon="7.507084732677906">
<ele>689.4494824218749</ele>
<time>2014-06-01T19:48:05Z</time>
</trkpt>
<trkpt lat="46.98646201855921" lon="7.507996732677905">
<ele>695.5094824218748</ele>
<time>2014-06-01T19:48:48Z</time>
</trkpt>
<trkpt lat="46.98655501855921" lon="7.5081247326779055">
<ele>695.7294824218749</ele>
<time>2014-06-01T19:48:51Z</time>
</trkpt>
<trkpt lat="46.987302018559205" lon="7.509313732677906">
<ele>698.7494824218749</ele>
<time>2014-06-01T19:49:15Z</time>
</trkpt>
<trkpt lat="46.98797901855921" lon="7.510411732677905">
<ele>701.4394824218749</ele>
<time>2014-06-01T19:49:37Z</time>
</trkpt>
<trkpt lat="46.98894101855921" lon="7.512247732677905">
<ele>700.879482421875</ele>
<time>2014-06-01T19:50:11Z</time>
</trkpt>
<trkpt lat="46.98916201855921" lon="7.512668732677906">
<ele>700.319482421875</ele>
<time>2014-06-01T19:50:19Z</time>
</trkpt>
<trkpt lat="46.98952801855921" lon="7.5132147326779055">
<ele>698.879482421875</ele>
<time>2014-06-01T19:50:25Z</time>
</trkpt>
<trkpt lat="46.98984701855921" lon="7.513565732677906">
<ele>696.129482421875</ele>
<time>2014-06-01T19:50:30Z</time>
</trkpt>
<trkpt lat="46.99097801855921" lon="7.515023732677906">
<ele>687.348482421875</ele>
<time>2014-06-01T19:50:48Z</time>
</trkpt>
<trkpt lat="46.99163901855921" lon="7.515902732677906">
<ele>679.069482421875</ele>
<time>2014-06-01T19:50:58Z</time>
</trkpt>
<trkpt lat="46.99169201855921" lon="7.516019732677907">
<ele>678.499482421875</ele>
<time>2014-06-01T19:50:59Z</time>
</trkpt>
<trkpt lat="46.99183901855921" lon="7.516370732677907">
<ele>676.969482421875</ele>
<time>2014-06-01T19:51:02Z</time>
</trkpt>
<trkpt lat="46.99192401855921" lon="7.516709732677907">
<ele>675.488482421875</ele>
<time>2014-06-01T19:51:05Z</time>
</trkpt>
<trkpt lat="46.99207601855921" lon="7.517411732677908">
<ele>671.668482421875</ele>
<time>2014-06-01T19:51:11Z</time>
</trkpt>
<trkpt lat="46.99234801855921" lon="7.518106732677908">
<ele>666.839482421875</ele>
<time>2014-06-01T19:51:18Z</time>
</trkpt>
<trkpt lat="46.993625018559214" lon="7.519743732677908">
<ele>661.709482421875</ele>
<time>2014-06-01T19:51:39Z</time>
</trkpt>
<trkpt lat="46.993816018559215" lon="7.5198817326779075">
<ele>657.829482421875</ele>
<time>2014-06-01T19:51:41Z</time>
</trkpt>
<trkpt lat="46.99405601855921" lon="7.520056732677907">
<ele>651.598482421875</ele>
<time>2014-06-01T19:51:47Z</time>
</trkpt>
<trkpt lat="46.99454701855921" lon="7.520159732677907">
<ele>645.218482421875</ele>
<time>2014-06-01T19:51:56Z</time>
</trkpt>
<trkpt lat="46.99554501855921" lon="7.520743732677907">
<ele>641.1394824218751</ele>
<time>2014-06-01T19:52:16Z</time>
</trkpt>
<trkpt lat="46.99646301855921" lon="7.521586732677907">
<ele>640.808482421875</ele>
<time>2014-06-01T19:52:37Z</time>
</trkpt>
<trkpt lat="46.996822018559214" lon="7.521956732677907">
<ele>640.9284824218751</ele>
<time>2014-06-01T19:52:45Z</time>
</trkpt>
<trkpt lat="46.99771801855921" lon="7.523425732677907">
<ele>642.1584824218751</ele>
<time>2014-06-01T19:53:11Z</time>
</trkpt>
<trkpt lat="46.99781101855921" lon="7.523626732677907">
<ele>644.5894824218751</ele>
<time>2014-06-01T19:53:14Z</time>
</trkpt>
<trkpt lat="46.99789601855921" lon="7.523873732677907">
<ele>646.3084824218752</ele>
<time>2014-06-01T19:53:18Z</time>
</trkpt>
<trkpt lat="46.99796501855921" lon="7.524190732677907">
<ele>647.4884824218751</ele>
<time>2014-06-01T19:53:22Z</time>
</trkpt>
<trkpt lat="46.99801301855921" lon="7.524496732677907">
<ele>647.1784824218752</ele>
<time>2014-06-01T19:53:26Z</time>
</trkpt>
<trkpt lat="46.998060018559215" lon="7.525047732677907">
<ele>646.5584824218752</ele>
<time>2014-06-01T19:53:33Z</time>
</trkpt>
<trkpt lat="46.99809301855922" lon="7.525293732677906">
<ele>643.9094824218752</ele>
<time>2014-06-01T19:53:36Z</time>
</trkpt>
<trkpt lat="46.99826201855922" lon="7.526195732677906">
<ele>633.4994824218752</ele>
<time>2014-06-01T19:53:44Z</time>
</trkpt>
<trkpt lat="46.99836301855922" lon="7.5268257326779064">
<ele>630.7884824218752</ele>
<time>2014-06-01T19:53:49Z</time>
</trkpt>
<trkpt lat="46.998406018559216" lon="7.527250732677906">
<ele>630.5484824218752</ele>
<time>2014-06-01T19:53:53Z</time>
</trkpt>
<trkpt lat="46.99844201855922" lon="7.527913732677907">
<ele>628.7494824218752</ele>
<time>2014-06-01T19:53:58Z</time>
</trkpt>
<trkpt lat="46.998474018559214" lon="7.528127732677906">
<ele>627.4994824218752</ele>
<time>2014-06-01T19:54:00Z</time>
</trkpt>
<trkpt lat="46.998533018559215" lon="7.528447732677907">
<ele>625.3894824218752</ele>
<time>2014-06-01T19:54:02Z</time>
</trkpt>
<trkpt lat="46.99883601855922" lon="7.529676732677907">
<ele>616.8894824218752</ele>
<time>2014-06-01T19:54:12Z</time>
</trkpt>
<trkpt lat="46.99888301855922" lon="7.530007732677907">
<ele>615.3794824218752</ele>
<time>2014-06-01T19:54:15Z</time>
</trkpt>
<trkpt lat="46.99889801855922" lon="7.530277732677908">
<ele>614.3394824218752</ele>
<time>2014-06-01T19:54:17Z</time>
</trkpt>
<trkpt lat="46.998902018559214" lon="7.530627732677908">
<ele>613.1894824218753</ele>
<time>2014-06-01T19:54:20Z</time>
</trkpt>
<trkpt lat="46.99885301855922" lon="7.531103732677908">
<ele>612.1184824218752</ele>
<time>2014-06-01T19:54:24Z</time>
</trkpt>
<trkpt lat="46.998780018559216" lon="7.531563732677908">
<ele>611.1394824218752</ele>
<time>2014-06-01T19:54:28Z</time>
</trkpt>
<trkpt lat="46.99862801855922" lon="7.532455732677908">
<ele>608.7594824218752</ele>
<time>2014-06-01T19:54:36Z</time>
</trkpt>
<trkpt lat="46.99860701855922" lon="7.532651732677908">
<ele>608.1994824218752</ele>
<time>2014-06-01T19:54:38Z</time>
</trkpt>
<trkpt lat="46.99860901855922" lon="7.532835732677908">
<ele>607.5984824218752</ele>
<time>2014-06-01T19:54:40Z</time>
</trkpt>
<trkpt lat="46.998729018559224" lon="7.533979732677908">
<ele>603.6084824218752</ele>
<time>2014-06-01T19:54:50Z</time>
</trkpt>
<trkpt lat="46.99874401855922" lon="7.535206732677908">
<ele>600.7594824218752</ele>
<time>2014-06-01T19:55:01Z</time>
</trkpt>
<trkpt lat="46.99874201855922" lon="7.5358507326779085">
<ele>599.9994824218752</ele>
<time>2014-06-01T19:55:06Z</time>
</trkpt>
<trkpt lat="46.99873401855922" lon="7.536144732677909">
<ele>599.9994824218752</ele>
<time>2014-06-01T19:55:10Z</time>
</trkpt>
<trkpt lat="46.99872601855922" lon="7.538363732677909">
<ele>600.0594824218751</ele>
<time>2014-06-01T19:55:38Z</time>
</trkpt>
<trkpt lat="46.99874901855922" lon="7.538672732677909">
<ele>600.6094824218751</ele>
<time>2014-06-01T19:55:43Z</time>
</trkpt>
<trkpt lat="46.99877101855922" lon="7.538974732677908">
<ele>601.0984824218751</ele>
<time>2014-06-01T19:55:47Z</time>
</trkpt>
<trkpt lat="46.99897901855922" lon="7.540041732677908">
<ele>601.3894824218752</ele>
<time>2014-06-01T19:56:01Z</time>
</trkpt>
<trkpt lat="46.999160018559216" lon="7.540808732677908">
<ele>600.0694824218751</ele>
<time>2014-06-01T19:56:11Z</time>
</trkpt>
<trkpt lat="46.999180018559215" lon="7.541065732677908">
<ele>599.9994824218751</ele>
<time>2014-06-01T19:56:14Z</time>
</trkpt>
<trkpt lat="46.999177018559216" lon="7.541293732677908">
<ele>599.9994824218751</ele>
<time>2014-06-01T19:56:16Z</time>
</trkpt>
<trkpt lat="46.999172018559214" lon="7.541679732677908">
<ele>599.9994824218751</ele>
<time>2014-06-01T19:56:21Z</time>
</trkpt>
<trkpt lat="46.99921801855921" lon="7.5420897326779075">
<ele>599.9994824218751</ele>
<time>2014-06-01T19:56:26Z</time>
</trkpt>
<trkpt lat="46.999310018559214" lon="7.542529732677908">
<ele>600.0294824218751</ele>
<time>2014-06-01T19:56:32Z</time>
</trkpt>
<trkpt lat="46.99979201855921" lon="7.543647732677908">
<ele>601.2794824218751</ele>
<time>2014-06-01T19:56:49Z</time>
</trkpt>
<trkpt lat="46.99995001855921" lon="7.5443077326779076">
<ele>601.6494824218751</ele>
<time>2014-06-01T19:56:57Z</time>
</trkpt>
<trkpt lat="47.00006001855921" lon="7.544830732677908">
<ele>590.199482421875</ele>
<time>2014-06-01T19:57:04Z</time>
</trkpt>
<trkpt lat="47.00007701855921" lon="7.544990732677908">
<ele>590.009482421875</ele>
<time>2014-06-01T19:57:07Z</time>
</trkpt>
<trkpt lat="47.00022401855921" lon="7.546490732677908">
<ele>589.999482421875</ele>
<time>2014-06-01T19:57:33Z</time>
</trkpt>
<trkpt lat="47.00028101855921" lon="7.546867732677908">
<ele>593.149482421875</ele>
<time>2014-06-01T19:57:40Z</time>
</trkpt>
<trkpt lat="47.00036201855921" lon="7.547253732677908">
<ele>599.158482421875</ele>
<time>2014-06-01T19:58:24Z</time>
</trkpt>
<trkpt lat="47.000805018559205" lon="7.548886732677908">
<ele>653.599482421875</ele>
<time>2014-06-01T20:01:49Z</time>
</trkpt>
<trkpt lat="47.00091401855921" lon="7.549323732677908">
<ele>659.589482421875</ele>
<time>2014-06-01T20:01:56Z</time>
</trkpt>
<trkpt lat="47.00184301855921" lon="7.551497732677908">
<ele>649.149482421875</ele>
<time>2014-06-01T20:02:38Z</time>
</trkpt>
<trkpt lat="47.00200301855921" lon="7.551989732677908">
<ele>650.899482421875</ele>
<time>2014-06-01T20:02:47Z</time>
</trkpt>
<trkpt lat="47.00227801855921" lon="7.552865732677908">
<ele>662.158482421875</ele>
<time>2014-06-01T20:03:02Z</time>
</trkpt>
<trkpt lat="47.00240101855921" lon="7.553243732677909">
<ele>670.259482421875</ele>
<time>2014-06-01T20:03:09Z</time>
</trkpt>
<trkpt lat="47.00283101855921" lon="7.554138732677909">
<ele>667.408482421875</ele>
<time>2014-06-01T20:03:27Z</time>
</trkpt>
<trkpt lat="47.003438018559216" lon="7.555233732677909">
<ele>661.199482421875</ele>
<time>2014-06-01T20:03:50Z</time>
</trkpt>
<trkpt lat="47.00362001855922" lon="7.555678732677909">
<ele>652.589482421875</ele>
<time>2014-06-01T20:03:59Z</time>
</trkpt>
<trkpt lat="47.004122018559215" lon="7.557188732677909">
<ele>640.288482421875</ele>
<time>2014-06-01T20:04:26Z</time>
</trkpt>
<trkpt lat="47.00434301855922" lon="7.557765732677908">
<ele>627.5984824218749</ele>
<time>2014-06-01T20:04:37Z</time>
</trkpt>
<trkpt lat="47.00473401855922" lon="7.558444732677908">
<ele>612.6694824218749</ele>
<time>2014-06-01T20:04:52Z</time>
</trkpt>
<trkpt lat="47.00484301855922" lon="7.558666732677908">
<ele>607.9794824218749</ele>
<time>2014-06-01T20:04:54Z</time>
</trkpt>
<trkpt lat="47.00516901855922" lon="7.559336732677909">
<ele>593.6294824218749</ele>
<time>2014-06-01T20:04:59Z</time>
</trkpt>
<trkpt lat="47.00528401855922" lon="7.559635732677909">
<ele>590.7384824218749</ele>
<time>2014-06-01T20:05:02Z</time>
</trkpt>
<trkpt lat="47.00532701855922" lon="7.559851732677909">
<ele>588.9184824218748</ele>
<time>2014-06-01T20:05:03Z</time>
</trkpt>
<trkpt lat="47.00532101855922" lon="7.560032732677909">
<ele>587.7194824218749</ele>
<time>2014-06-01T20:05:05Z</time>
</trkpt>
<trkpt lat="47.00517801855922" lon="7.560420732677909">
<ele>586.8394824218749</ele>
<time>2014-06-01T20:05:15Z</time>
</trkpt>
<trkpt lat="47.00492101855922" lon="7.561144732677909">
<ele>585.928482421875</ele>
<time>2014-06-01T20:05:34Z</time>
</trkpt>
<trkpt lat="47.00439201855922" lon="7.562103732677909">
<ele>595.999482421875</ele>
<time>2014-06-01T20:06:02Z</time>
</trkpt>
<trkpt lat="47.004321018559224" lon="7.562247732677909">
<ele>598.2844824218749</ele>
<time>2014-06-01T20:06:17Z</time>
</trkpt>
<trkpt lat="47.00439201855922" lon="7.562103732677909">
<ele>595.999482421875</ele>
<time>2014-06-01T20:06:19Z</time>
</trkpt>
<trkpt lat="47.00305901855922" lon="7.560351732677909">
<ele>589.4194824218749</ele>
<time>2014-06-01T20:06:42Z</time>
</trkpt>
<trkpt lat="47.00157701855922" lon="7.5584027326779095">
<ele>596.0494824218749</ele>
<time>2014-06-01T20:07:38Z</time>
</trkpt>
<trkpt lat="47.00008801855922" lon="7.5564457326779095">
<ele>595.4694824218749</ele>
<time>2014-06-01T20:08:11Z</time>
</trkpt>
<trkpt lat="46.99974801855922" lon="7.55599773267791">
<ele>601.0384824218748</ele>
<time>2014-06-01T20:08:28Z</time>
</trkpt>
<trkpt lat="46.99930001855922" lon="7.55548173267791">
<ele>601.5294824218748</ele>
<time>2014-06-01T20:08:49Z</time>
</trkpt>
<trkpt lat="46.99911101855922" lon="7.55531173267791">
<ele>600.7094824218748</ele>
<time>2014-06-01T20:08:55Z</time>
</trkpt>
<trkpt lat="46.99874901855922" lon="7.55517073267791">
<ele>600.9084824218747</ele>
<time>2014-06-01T20:09:05Z</time>
</trkpt>
<trkpt lat="46.99765001855921" lon="7.55491673267791">
<ele>600.8484824218748</ele>
<time>2014-06-01T20:09:34Z</time>
</trkpt>
<trkpt lat="46.996751018559216" lon="7.55480173267791">
<ele>602.3294824218748</ele>
<time>2014-06-01T20:09:58Z</time>
</trkpt>
<trkpt lat="46.995826018559214" lon="7.55475773267791">
<ele>607.8584824218748</ele>
<time>2014-06-01T20:10:22Z</time>
</trkpt>
<trkpt lat="46.994827018559214" lon="7.5548127326779095">
<ele>617.0194824218747</ele>
<time>2014-06-01T20:10:49Z</time>
</trkpt>
<trkpt lat="46.99392501855921" lon="7.554905732677909">
<ele>616.3394824218748</ele>
<time>2014-06-01T20:11:13Z</time>
</trkpt>
<trkpt lat="46.99281101855921" lon="7.555267732677909">
<ele>627.1084824218748</ele>
<time>2014-06-01T20:11:40Z</time>
</trkpt>
<trkpt lat="46.99220101855921" lon="7.555483732677909">
<ele>636.2184824218748</ele>
<time>2014-06-01T20:11:55Z</time>
</trkpt>
<trkpt lat="46.991563018559205" lon="7.555540732677909">
<ele>637.8794824218747</ele>
<time>2014-06-01T20:12:10Z</time>
</trkpt>
<trkpt lat="46.991296018559204" lon="7.555516732677909">
<ele>636.4494824218748</ele>
<time>2014-06-01T20:12:16Z</time>
</trkpt>
<trkpt lat="46.9910520185592" lon="7.55549373267791">
<ele>635.0194824218748</ele>
<time>2014-06-01T20:12:22Z</time>
</trkpt>
<trkpt lat="46.9905370185592" lon="7.5552957326779095">
<ele>632.4184824218748</ele>
<time>2014-06-01T20:12:35Z</time>
</trkpt>
<trkpt lat="46.9889480185592" lon="7.554398732677909">
<ele>631.7984824218748</ele>
<time>2014-06-01T20:13:15Z</time>
</trkpt>
<trkpt lat="46.9880580185592" lon="7.554048732677909">
<ele>636.0384824218748</ele>
<time>2014-06-01T20:13:37Z</time>
</trkpt>
<trkpt lat="46.9873520185592" lon="7.55387373267791">
<ele>637.6994824218748</ele>
<time>2014-06-01T20:13:54Z</time>
</trkpt>
<trkpt lat="46.9866370185592" lon="7.55402273267791">
<ele>637.3394824218748</ele>
<time>2014-06-01T20:14:11Z</time>
</trkpt>
<trkpt lat="46.9859760185592" lon="7.55432173267791">
<ele>637.9994824218747</ele>
<time>2014-06-01T20:14:27Z</time>
</trkpt>
<trkpt lat="46.9844720185592" lon="7.55526573267791">
<ele>640.2494824218747</ele>
<time>2014-06-01T20:15:06Z</time>
</trkpt>
<trkpt lat="46.9825790185592" lon="7.5565027326779095">
<ele>638.7384824218748</ele>
<time>2014-06-01T20:15:55Z</time>
</trkpt>
<trkpt lat="46.9821000185592" lon="7.55661273267791">
<ele>636.3794824218747</ele>
<time>2014-06-01T20:16:07Z</time>
</trkpt>
<trkpt lat="46.9820000185592" lon="7.55659473267791">
<ele>635.6694824218747</ele>
<time>2014-06-01T20:16:09Z</time>
</trkpt>
<trkpt lat="46.981717018559195" lon="7.55654173267791">
<ele>633.5794824218747</ele>
<time>2014-06-01T20:16:13Z</time>
</trkpt>
<trkpt lat="46.9812660185592" lon="7.55629673267791">
<ele>633.6494824218747</ele>
<time>2014-06-01T20:16:18Z</time>
</trkpt>
<trkpt lat="46.98019501855919" lon="7.55514573267791">
<ele>621.1294824218747</ele>
<time>2014-06-01T20:16:34Z</time>
</trkpt>
<trkpt lat="46.97942501855919" lon="7.55448573267791">
<ele>609.9684824218748</ele>
<time>2014-06-01T20:16:45Z</time>
</trkpt>
<trkpt lat="46.97938101855919" lon="7.55446273267791">
<ele>609.5094824218748</ele>
<time>2014-06-01T20:16:45Z</time>
</trkpt>
<trkpt lat="46.97931501855919" lon="7.55443073267791">
<ele>608.8494824218749</ele>
<time>2014-06-01T20:16:46Z</time>
</trkpt>
<trkpt lat="46.97893301855919" lon="7.55423973267791">
<ele>604.7494824218749</ele>
<time>2014-06-01T20:16:53Z</time>
</trkpt>
<trkpt lat="46.97831101855919" lon="7.5541587326779105">
<ele>599.9994824218749</ele>
<time>2014-06-01T20:17:04Z</time>
</trkpt>
<trkpt lat="46.976742018559186" lon="7.55417073267791">
<ele>600.0484824218748</ele>
<time>2014-06-01T20:17:30Z</time>
</trkpt>
<trkpt lat="46.97567501855919" lon="7.554230732677911">
<ele>601.0984824218748</ele>
<time>2014-06-01T20:17:48Z</time>
</trkpt>
<trkpt lat="46.97485601855919" lon="7.554178732677911">
<ele>600.8294824218748</ele>
<time>2014-06-01T20:18:02Z</time>
</trkpt>
<trkpt lat="46.97460201855919" lon="7.554168732677911">
<ele>601.4994824218747</ele>
<time>2014-06-01T20:18:07Z</time>
</trkpt>
<trkpt lat="46.97343001855919" lon="7.553890732677911">
<ele>604.3794824218747</ele>
<time>2014-06-01T20:18:31Z</time>
</trkpt>
<trkpt lat="46.97290601855919" lon="7.553722732677911">
<ele>603.0294824218747</ele>
<time>2014-06-01T20:18:41Z</time>
</trkpt>
<trkpt lat="46.97247301855919" lon="7.553494732677911">
<ele>601.1684824218747</ele>
<time>2014-06-01T20:18:50Z</time>
</trkpt>
<trkpt lat="46.97195501855919" lon="7.553271732677911">
<ele>599.9994824218747</ele>
<time>2014-06-01T20:19:01Z</time>
</trkpt>
<trkpt lat="46.971493018559194" lon="7.553168732677911">
<ele>600.4994824218747</ele>
<time>2014-06-01T20:19:10Z</time>
</trkpt>
<trkpt lat="46.9713090185592" lon="7.55312773267791">
<ele>600.9684824218748</ele>
<time>2014-06-01T20:19:14Z</time>
</trkpt>
<trkpt lat="46.9703170185592" lon="7.55291273267791">
<ele>604.8684824218748</ele>
<time>2014-06-01T20:19:36Z</time>
</trkpt>
<trkpt lat="46.9690420185592" lon="7.552807732677911">
<ele>609.3684824218748</ele>
<time>2014-06-01T20:20:04Z</time>
</trkpt>
<trkpt lat="46.9681950185592" lon="7.552840732677911">
<ele>606.4884824218748</ele>
<time>2014-06-01T20:20:22Z</time>
</trkpt>
<trkpt lat="46.9667480185592" lon="7.553057732677911">
<ele>603.6894824218748</ele>
<time>2014-06-01T20:20:53Z</time>
</trkpt>
<trkpt lat="46.9654360185592" lon="7.553039732677911">
<ele>592.8644824218748</ele>
<time>2014-06-01T20:21:22Z</time>
</trkpt>
<trkpt lat="46.9647760185592" lon="7.553031732677911">
<ele>582.0384824218747</ele>
<time>2014-06-01T20:21:36Z</time>
</trkpt>
<trkpt lat="46.9642240185592" lon="7.553235732677911">
<ele>581.0694824218747</ele>
<time>2014-06-01T20:21:48Z</time>
</trkpt>
<trkpt lat="46.9637090185592" lon="7.553515732677911">
<ele>585.2284824218747</ele>
<time>2014-06-01T20:22:00Z</time>
</trkpt>
<trkpt lat="46.9631350185592" lon="7.553643732677911">
<ele>587.5384824218746</ele>
<time>2014-06-01T20:22:13Z</time>
</trkpt>
<trkpt lat="46.9627290185592" lon="7.553613732677912">
<ele>586.8294824218747</ele>
<time>2014-06-01T20:22:21Z</time>
</trkpt>
<trkpt lat="46.962289018559204" lon="7.553545732677912">
<ele>584.4994824218746</ele>
<time>2014-06-01T20:22:31Z</time>
</trkpt>
<trkpt lat="46.960896018559204" lon="7.553059732677911">
<ele>581.2384824218747</ele>
<time>2014-06-01T20:23:02Z</time>
</trkpt>
<trkpt lat="46.960474018559204" lon="7.553040732677911">
<ele>586.2094824218747</ele>
<time>2014-06-01T20:23:11Z</time>
</trkpt>
<trkpt lat="46.959852018559204" lon="7.553109732677911">
<ele>595.7494824218746</ele>
<time>2014-06-01T20:23:25Z</time>
</trkpt>
<trkpt lat="46.9595690185592" lon="7.553057732677911">
<ele>597.3894824218746</ele>
<time>2014-06-01T20:23:31Z</time>
</trkpt>
<trkpt lat="46.9593710185592" lon="7.552993732677911">
<ele>597.5094824218746</ele>
<time>2014-06-01T20:23:35Z</time>
</trkpt>
<trkpt lat="46.959122018559206" lon="7.552851732677911">
<ele>595.5984824218747</ele>
<time>2014-06-01T20:23:41Z</time>
</trkpt>
<trkpt lat="46.95886301855921" lon="7.5526717326779105">
<ele>593.8684824218747</ele>
<time>2014-06-01T20:23:47Z</time>
</trkpt>
<trkpt lat="46.958199018559206" lon="7.552152732677911">
<ele>593.6394824218746</ele>
<time>2014-06-01T20:24:03Z</time>
</trkpt>
<trkpt lat="46.957468018559204" lon="7.551442732677911">
<ele>596.8084824218746</ele>
<time>2014-06-01T20:24:22Z</time>
</trkpt>
<trkpt lat="46.9567820185592" lon="7.550856732677911">
<ele>592.2594824218746</ele>
<time>2014-06-01T20:24:39Z</time>
</trkpt>
<trkpt lat="46.9560900185592" lon="7.550143732677911">
<ele>580.4794824218746</ele>
<time>2014-06-01T20:24:58Z</time>
</trkpt>
<trkpt lat="46.955903018559205" lon="7.54996373267791">
<ele>579.0794824218747</ele>
<time>2014-06-01T20:25:01Z</time>
</trkpt>
<trkpt lat="46.9556790185592" lon="7.549952732677911">
<ele>578.6194824218746</ele>
<time>2014-06-01T20:25:04Z</time>
</trkpt>
<trkpt lat="46.955647018559205" lon="7.549844732677911">
<ele>578.5094824218746</ele>
<time>2014-06-01T20:25:05Z</time>
</trkpt>
<trkpt lat="46.955616018559205" lon="7.54978473267791">
<ele>578.4084824218746</ele>
<time>2014-06-01T20:25:05Z</time>
</trkpt>
<trkpt lat="46.955503018559206" lon="7.54967173267791">
<ele>578.0494824218746</ele>
<time>2014-06-01T20:25:07Z</time>
</trkpt>
<trkpt lat="46.955371018559205" lon="7.54958073267791">
<ele>577.6084824218746</ele>
<time>2014-06-01T20:25:09Z</time>
</trkpt>
<trkpt lat="46.95495101855921" lon="7.54927273267791">
<ele>576.2494824218745</ele>
<time>2014-06-01T20:25:15Z</time>
</trkpt>
<trkpt lat="46.95473101855921" lon="7.54910873267791">
<ele>576.5294824218745</ele>
<time>2014-06-01T20:25:20Z</time>
</trkpt>
<trkpt lat="46.95449801855921" lon="7.54890773267791">
<ele>576.5194824218745</ele>
<time>2014-06-01T20:25:26Z</time>
</trkpt>
<trkpt lat="46.954335018559206" lon="7.54878673267791">
<ele>576.4084824218745</ele>
<time>2014-06-01T20:25:29Z</time>
</trkpt>
<trkpt lat="46.95426901855921" lon="7.54874273267791">
<ele>576.3594824218745</ele>
<time>2014-06-01T20:25:30Z</time>
</trkpt>
<trkpt lat="46.95428301855921" lon="7.54869273267791">
<ele>576.1784824218745</ele>
<time>2014-06-01T20:25:30Z</time>
</trkpt>
<trkpt lat="46.95427401855921" lon="7.548586732677911">
<ele>575.8294824218744</ele>
<time>2014-06-01T20:25:31Z</time>
</trkpt>
<trkpt lat="46.95425201855921" lon="7.548542732677911">
<ele>575.6994824218744</ele>
<time>2014-06-01T20:25:32Z</time>
</trkpt>
<trkpt lat="46.95421101855921" lon="7.548379732677911">
<ele>575.1584824218744</ele>
<time>2014-06-01T20:25:33Z</time>
</trkpt>
<trkpt lat="46.95419601855921" lon="7.548292732677911">
<ele>574.8584824218744</ele>
<time>2014-06-01T20:25:34Z</time>
</trkpt>
<trkpt lat="46.954158018559205" lon="7.548050732677911">
<ele>573.9294824218745</ele>
<time>2014-06-01T20:25:36Z</time>
</trkpt>
<trkpt lat="46.954209018559204" lon="7.5475827326779115">
<ele>572.3394824218744</ele>
<time>2014-06-01T20:25:40Z</time>
</trkpt>
<trkpt lat="46.95422201855921" lon="7.547124732677911">
<ele>570.7794824218745</ele>
<time>2014-06-01T20:25:43Z</time>
</trkpt>
<trkpt lat="46.95414801855921" lon="7.546618732677912">
<ele>568.5894824218744</ele>
<time>2014-06-01T20:25:48Z</time>
</trkpt>
<trkpt lat="46.95409601855921" lon="7.546436732677912">
<ele>567.2894824218745</ele>
<time>2014-06-01T20:25:49Z</time>
</trkpt>
<trkpt lat="46.953707018559214" lon="7.545598732677912">
<ele>561.9884824218744</ele>
<time>2014-06-01T20:25:57Z</time>
</trkpt>
<trkpt lat="46.95350001855921" lon="7.545205732677912">
<ele>560.6994824218744</ele>
<time>2014-06-01T20:26:01Z</time>
</trkpt>
<trkpt lat="46.95295701855921" lon="7.544465732677912">
<ele>559.9994824218744</ele>
<time>2014-06-01T20:26:13Z</time>
</trkpt>
<trkpt lat="46.95282001855921" lon="7.544232732677912">
<ele>559.9994824218744</ele>
<time>2014-06-01T20:26:16Z</time>
</trkpt>
<trkpt lat="46.952579018559206" lon="7.543563732677912">
<ele>559.9994824218744</ele>
<time>2014-06-01T20:26:25Z</time>
</trkpt>
<trkpt lat="46.952540018559205" lon="7.543289732677912">
<ele>560.0094824218744</ele>
<time>2014-06-01T20:26:29Z</time>
</trkpt>
<trkpt lat="46.952506018559205" lon="7.5429507326779115">
<ele>560.0094824218744</ele>
<time>2014-06-01T20:26:33Z</time>
</trkpt>
<trkpt lat="46.952512018559204" lon="7.542746732677911">
<ele>560.0194824218744</ele>
<time>2014-06-01T20:26:36Z</time>
</trkpt>
<trkpt lat="46.952540018559205" lon="7.542374732677912">
<ele>560.2594824218744</ele>
<time>2014-06-01T20:26:41Z</time>
</trkpt>
<trkpt lat="46.95256701855921" lon="7.542172732677912">
<ele>560.6184824218744</ele>
<time>2014-06-01T20:26:45Z</time>
</trkpt>
<trkpt lat="46.95265301855921" lon="7.541746732677912">
<ele>561.6094824218744</ele>
<time>2014-06-01T20:26:53Z</time>
</trkpt>
<trkpt lat="46.95274901855921" lon="7.541271732677912">
<ele>563.1394824218744</ele>
<time>2014-06-01T20:27:04Z</time>
</trkpt>
<trkpt lat="46.95287501855921" lon="7.540715732677913">
<ele>564.9994824218744</ele>
<time>2014-06-01T20:27:16Z</time>
</trkpt>
<trkpt lat="46.952998018559214" lon="7.540712732677912">
<ele>565.6184824218744</ele>
<time>2014-06-01T20:27:21Z</time>
</trkpt>
<trkpt lat="46.95335701855922" lon="7.540531732677912">
<ele>567.8894824218744</ele>
<time>2014-06-01T20:27:35Z</time>
</trkpt>
<trkpt lat="46.95351101855922" lon="7.540284732677912">
<ele>569.5984824218743</ele>
<time>2014-06-01T20:27:39Z</time>
</trkpt>
<trkpt lat="46.95355801855922" lon="7.540026732677912">
<ele>570.5484824218744</ele>
<time>2014-06-01T20:27:42Z</time>
</trkpt>
<trkpt lat="46.953540018559224" lon="7.539546732677913">
<ele>570.2184824218743</ele>
<time>2014-06-01T20:27:48Z</time>
</trkpt>
<trkpt lat="46.95355801855922" lon="7.539091732677913">
<ele>569.9784824218743</ele>
<time>2014-06-01T20:27:54Z</time>
</trkpt>
<trkpt lat="46.95392701855922" lon="7.537975732677913">
<ele>568.9494824218743</ele>
<time>2014-06-01T20:28:09Z</time>
</trkpt>
<trkpt lat="46.95433701855922" lon="7.537194732677913">
<ele>566.1584824218743</ele>
<time>2014-06-01T20:28:22Z</time>
</trkpt>
<trkpt lat="46.954519018559225" lon="7.536936732677914">
<ele>565.6184824218743</ele>
<time>2014-06-01T20:28:26Z</time>
</trkpt>
<trkpt lat="46.954589018559226" lon="7.536836732677914">
<ele>565.3694824218743</ele>
<time>2014-06-01T20:28:28Z</time>
</trkpt>
<trkpt lat="46.954829018559224" lon="7.536559732677914">
<ele>565.1294824218743</ele>
<time>2014-06-01T20:28:33Z</time>
</trkpt>
<trkpt lat="46.955605018559226" lon="7.535668732677914">
<ele>564.4394824218742</ele>
<time>2014-06-01T20:28:49Z</time>
</trkpt>
<trkpt lat="46.95580701855923" lon="7.535400732677914">
<ele>563.7794824218743</ele>
<time>2014-06-01T20:28:53Z</time>
</trkpt>
<trkpt lat="46.95596901855923" lon="7.535102732677914">
<ele>562.9184824218743</ele>
<time>2014-06-01T20:28:57Z</time>
</trkpt>
<trkpt lat="46.95604301855923" lon="7.534921732677914">
<ele>562.5194824218743</ele>
<time>2014-06-01T20:28:59Z</time>
</trkpt>
<trkpt lat="46.956064018559225" lon="7.534764732677914">
<ele>562.1894824218742</ele>
<time>2014-06-01T20:29:01Z</time>
</trkpt>
<trkpt lat="46.956055018559226" lon="7.534705732677914">
<ele>561.9494824218742</ele>
<time>2014-06-01T20:29:02Z</time>
</trkpt>
<trkpt lat="46.95643901855922" lon="7.534274732677914">
<ele>561.4284824218743</ele>
<time>2014-06-01T20:29:11Z</time>
</trkpt>
<trkpt lat="46.957215018559225" lon="7.533434732677914">
<ele>563.3194824218742</ele>
<time>2014-06-01T20:29:30Z</time>
</trkpt>
<trkpt lat="46.95736201855922" lon="7.533237732677914">
<ele>563.0484824218743</ele>
<time>2014-06-01T20:29:34Z</time>
</trkpt>
<trkpt lat="46.95746901855922" lon="7.533051732677913">
<ele>562.8794824218743</ele>
<time>2014-06-01T20:29:38Z</time>
</trkpt>
<trkpt lat="46.957570018559224" lon="7.532782732677913">
<ele>563.1794824218742</ele>
<time>2014-06-01T20:29:42Z</time>
</trkpt>
<trkpt lat="46.957631018559226" lon="7.532570732677913">
<ele>563.3294824218742</ele>
<time>2014-06-01T20:29:45Z</time>
</trkpt>
<trkpt lat="46.957654018559225" lon="7.532458732677913">
<ele>563.3194824218742</ele>
<time>2014-06-01T20:29:46Z</time>
</trkpt>
<trkpt lat="46.95777301855922" lon="7.531461732677913">
<ele>562.7884824218743</ele>
<time>2014-06-01T20:29:58Z</time>
</trkpt>
<trkpt lat="46.957783018559226" lon="7.531370732677913">
<ele>562.8094824218742</ele>
<time>2014-06-01T20:29:59Z</time>
</trkpt>
<trkpt lat="46.95782201855923" lon="7.531013732677913">
<ele>562.8694824218742</ele>
<time>2014-06-01T20:30:03Z</time>
</trkpt>
<trkpt lat="46.957843018559224" lon="7.530850732677913">
<ele>562.8994824218742</ele>
<time>2014-06-01T20:30:05Z</time>
</trkpt>
<trkpt lat="46.95796201855922" lon="7.529523732677913">
<ele>561.5794824218741</ele>
<time>2014-06-01T20:30:19Z</time>
</trkpt>
<trkpt lat="46.95796701855922" lon="7.529383732677913">
<ele>561.4094824218741</ele>
<time>2014-06-01T20:30:20Z</time>
</trkpt>
<trkpt lat="46.957972018559225" lon="7.529255732677913">
<ele>561.2594824218742</ele>
<time>2014-06-01T20:30:22Z</time>
</trkpt>
<trkpt lat="46.95797401855923" lon="7.529014732677913">
<ele>561.0294824218741</ele>
<time>2014-06-01T20:30:24Z</time>
</trkpt>
<trkpt lat="46.95797401855923" lon="7.528219732677913">
<ele>560.4894824218742</ele>
<time>2014-06-01T20:30:32Z</time>
</trkpt>
<trkpt lat="46.95796301855923" lon="7.527641732677913">
<ele>560.0894824218742</ele>
<time>2014-06-01T20:30:39Z</time>
</trkpt>
<trkpt lat="46.95797001855922" lon="7.527351732677913">
<ele>559.9994824218742</ele>
<time>2014-06-01T20:30:42Z</time>
</trkpt>
<trkpt lat="46.95797701855922" lon="7.526988732677913">
<ele>559.9994824218742</ele>
<time>2014-06-01T20:30:46Z</time>
</trkpt>
<trkpt lat="46.95798301855922" lon="7.5267237326779135">
<ele>559.9994824218742</ele>
<time>2014-06-01T20:30:49Z</time>
</trkpt>
<trkpt lat="46.95799901855922" lon="7.526590732677914">
<ele>559.9994824218742</ele>
<time>2014-06-01T20:30:51Z</time>
</trkpt>
<trkpt lat="46.95802801855922" lon="7.526411732677913">
<ele>559.9994824218742</ele>
<time>2014-06-01T20:30:53Z</time>
</trkpt>
<trkpt lat="46.95813001855922" lon="7.525828732677914">
<ele>559.9994824218742</ele>
<time>2014-06-01T20:31:01Z</time>
</trkpt>
<trkpt lat="46.958345018559214" lon="7.525253732677913">
<ele>560.0194824218742</ele>
<time>2014-06-01T20:31:09Z</time>
</trkpt>
<trkpt lat="46.958376018559214" lon="7.525145732677913">
<ele>560.0594824218741</ele>
<time>2014-06-01T20:31:10Z</time>
</trkpt>
<trkpt lat="46.958424018559214" lon="7.524937732677913">
<ele>560.1084824218741</ele>
<time>2014-06-01T20:31:13Z</time>
</trkpt>
<trkpt lat="46.95849501855921" lon="7.524446732677913">
<ele>560.1894824218741</ele>
<time>2014-06-01T20:31:19Z</time>
</trkpt>
<trkpt lat="46.95854401855921" lon="7.524223732677913">
<ele>560.2494824218741</ele>
<time>2014-06-01T20:31:22Z</time>
</trkpt>
<trkpt lat="46.95857701855921" lon="7.524045732677913">
<ele>560.2494824218741</ele>
<time>2014-06-01T20:31:25Z</time>
</trkpt>
<trkpt lat="46.95863301855921" lon="7.523831732677913">
<ele>560.2194824218741</ele>
<time>2014-06-01T20:31:27Z</time>
</trkpt>
<trkpt lat="46.95868901855921" lon="7.5236167326779135">
<ele>560.149482421874</ele>
<time>2014-06-01T20:31:30Z</time>
</trkpt>
<trkpt lat="46.95874001855921" lon="7.523312732677914">
<ele>559.9994824218741</ele>
<time>2014-06-01T20:31:33Z</time>
</trkpt>
<trkpt lat="46.95876001855921" lon="7.522976732677914">
<ele>559.9994824218741</ele>
<time>2014-06-01T20:31:37Z</time>
</trkpt>
<trkpt lat="46.95876801855921" lon="7.522582732677914">
<ele>559.9994824218741</ele>
<time>2014-06-01T20:31:42Z</time>
</trkpt>
<trkpt lat="46.95876801855921" lon="7.522152732677914">
<ele>559.9994824218741</ele>
<time>2014-06-01T20:31:47Z</time>
</trkpt>
<trkpt lat="46.95877201855921" lon="7.521681732677914">
<ele>559.9994824218741</ele>
<time>2014-06-01T20:31:53Z</time>
</trkpt>
<trkpt lat="46.95877001855921" lon="7.521275732677914">
<ele>559.9994824218741</ele>
<time>2014-06-01T20:31:59Z</time>
</trkpt>
<trkpt lat="46.95878701855921" lon="7.521056732677914">
<ele>559.9994824218741</ele>
<time>2014-06-01T20:32:01Z</time>
</trkpt>
<trkpt lat="46.958867018559204" lon="7.520487732677914">
<ele>560.269482421874</ele>
<time>2014-06-01T20:32:09Z</time>
</trkpt>
<trkpt lat="46.9589020185592" lon="7.520251732677914">
<ele>560.4794824218741</ele>
<time>2014-06-01T20:32:12Z</time>
</trkpt>
<trkpt lat="46.9590290185592" lon="7.520112732677914">
<ele>560.7184824218741</ele>
<time>2014-06-01T20:32:18Z</time>
</trkpt>
<trkpt lat="46.9592040185592" lon="7.519589732677914">
<ele>561.7594824218742</ele>
<time>2014-06-01T20:32:32Z</time>
</trkpt>
<trkpt lat="46.9593380185592" lon="7.519292732677914">
<ele>562.7044824218742</ele>
<time>2014-06-01T20:32:41Z</time>
</trkpt>
<trkpt lat="46.959396018559204" lon="7.519165732677914">
<ele>563.6494824218743</ele>
<time>2014-06-01T20:32:45Z</time>
</trkpt>
<trkpt lat="46.9595960185592" lon="7.518794732677914">
<ele>565.5384824218743</ele>
<time>2014-06-01T20:32:57Z</time>
</trkpt>
<trkpt lat="46.9597790185592" lon="7.518529732677914">
<ele>567.1794824218742</ele>
<time>2014-06-01T20:33:06Z</time>
</trkpt>
<trkpt lat="46.959953018559204" lon="7.518390732677914">
<ele>568.5984824218742</ele>
<time>2014-06-01T20:33:12Z</time>
</trkpt>
<trkpt lat="46.96003901855921" lon="7.518284732677914">
<ele>569.3194824218742</ele>
<time>2014-06-01T20:33:15Z</time>
</trkpt>
<trkpt lat="46.960122018559204" lon="7.518116732677914">
<ele>569.9884824218742</ele>
<time>2014-06-01T20:33:19Z</time>
</trkpt>
<trkpt lat="46.960442018559206" lon="7.517341732677914">
<ele>571.7094824218742</ele>
<time>2014-06-01T20:33:36Z</time>
</trkpt>
<trkpt lat="46.96060701855921" lon="7.516950732677914">
<ele>571.5694824218742</ele>
<time>2014-06-01T20:33:45Z</time>
</trkpt>
<trkpt lat="46.96065701855921" lon="7.516831732677915">
<ele>571.4894824218742</ele>
<time>2014-06-01T20:33:46Z</time>
</trkpt>
<trkpt lat="46.960757018559214" lon="7.516591732677915">
<ele>571.0094824218742</ele>
<time>2014-06-01T20:33:49Z</time>
</trkpt>
<trkpt lat="46.961117018559214" lon="7.515722732677915">
<ele>566.9994824218742</ele>
<time>2014-06-01T20:33:58Z</time>
</trkpt>
<trkpt lat="46.96124501855921" lon="7.515414732677915">
<ele>565.7094824218742</ele>
<time>2014-06-01T20:34:01Z</time>
</trkpt>
<trkpt lat="46.96132801855921" lon="7.515244732677915">
<ele>565.0194824218742</ele>
<time>2014-06-01T20:34:04Z</time>
</trkpt>
<trkpt lat="46.96141401855921" lon="7.515120732677915">
<ele>564.6184824218742</ele>
<time>2014-06-01T20:34:07Z</time>
</trkpt>
<trkpt lat="46.96151601855921" lon="7.515023732677915">
<ele>564.4494824218742</ele>
<time>2014-06-01T20:34:10Z</time>
</trkpt>
<trkpt lat="46.96163701855921" lon="7.514938732677915">
<ele>564.5694824218742</ele>
<time>2014-06-01T20:34:13Z</time>
</trkpt>
<trkpt lat="46.96178101855921" lon="7.514872732677914">
<ele>565.4494824218742</ele>
<time>2014-06-01T20:34:17Z</time>
</trkpt>
<trkpt lat="46.96198101855921" lon="7.514726732677914">
<ele>566.4594824218742</ele>
<time>2014-06-01T20:34:22Z</time>
</trkpt>
<trkpt lat="46.962134018559205" lon="7.514583732677915">
<ele>566.9294824218742</ele>
<time>2014-06-01T20:34:27Z</time>
</trkpt>
<trkpt lat="46.9628720185592" lon="7.514021732677914">
<ele>571.7694824218743</ele>
<time>2014-06-01T20:35:02Z</time>
</trkpt>
<trkpt lat="46.963088018559205" lon="7.513865732677915">
<ele>575.0984824218742</ele>
<time>2014-06-01T20:35:13Z</time>
</trkpt>
<trkpt lat="46.9633840185592" lon="7.5137427326779145">
<ele>579.8684824218742</ele>
<time>2014-06-01T20:35:26Z</time>
</trkpt>
<trkpt lat="46.9637950185592" lon="7.5136537326779145">
<ele>583.3294824218742</ele>
<time>2014-06-01T20:35:44Z</time>
</trkpt>
<trkpt lat="46.964200018559204" lon="7.5134827326779146">
<ele>587.9084824218742</ele>
<time>2014-06-01T20:36:03Z</time>
</trkpt>
<trkpt lat="46.9644850185592" lon="7.513246732677914">
<ele>587.5894824218742</ele>
<time>2014-06-01T20:36:17Z</time>
</trkpt>
<trkpt lat="46.9646460185592" lon="7.512989732677914">
<ele>588.9294824218742</ele>
<time>2014-06-01T20:36:27Z</time>
</trkpt>
<trkpt lat="46.9649680185592" lon="7.512941732677914">
<ele>586.0384824218743</ele>
<time>2014-06-01T20:36:31Z</time>
</trkpt>
<trkpt lat="46.9652260185592" lon="7.5129357326779145">
<ele>584.4694824218743</ele>
<time>2014-06-01T20:36:34Z</time>
</trkpt>
<trkpt lat="46.9653130185592" lon="7.512933732677914">
<ele>583.9884824218743</ele>
<time>2014-06-01T20:36:37Z</time>
</trkpt>
<trkpt lat="46.9659320185592" lon="7.512805732677914">
<ele>581.4994824218743</ele>
<time>2014-06-01T20:36:58Z</time>
</trkpt>
<trkpt lat="46.966398018559204" lon="7.512483732677914">
<ele>582.4394824218743</ele>
<time>2014-06-01T20:37:15Z</time>
</trkpt>
<trkpt lat="46.9668320185592" lon="7.512218732677915">
<ele>586.0694824218743</ele>
<time>2014-06-01T20:37:31Z</time>
</trkpt>
<trkpt lat="46.9670970185592" lon="7.512097732677915">
<ele>589.3294824218743</ele>
<time>2014-06-01T20:37:41Z</time>
</trkpt>
<trkpt lat="46.967459018559204" lon="7.512049732677915">
<ele>593.1994824218743</ele>
<time>2014-06-01T20:37:53Z</time>
</trkpt>
<trkpt lat="46.967748018559206" lon="7.511966732677915">
<ele>595.7294824218743</ele>
<time>2014-06-01T20:38:03Z</time>
</trkpt>
<trkpt lat="46.9679040185592" lon="7.5118687326779146">
<ele>597.0484824218743</ele>
<time>2014-06-01T20:38:09Z</time>
</trkpt>
<trkpt lat="46.9681100185592" lon="7.511712732677915">
<ele>598.6084824218742</ele>
<time>2014-06-01T20:38:18Z</time>
</trkpt>
<trkpt lat="46.968542018559205" lon="7.511498732677915">
<ele>600.3994824218743</ele>
<time>2014-06-01T20:38:35Z</time>
</trkpt>
<trkpt lat="46.9690690185592" lon="7.511041732677915">
<ele>600.9684824218742</ele>
<time>2014-06-01T20:38:57Z</time>
</trkpt>
<trkpt lat="46.9691880185592" lon="7.510962732677915">
<ele>601.1494824218743</ele>
<time>2014-06-01T20:39:02Z</time>
</trkpt>
<trkpt lat="46.969454018559205" lon="7.510839732677915">
<ele>602.7384824218743</ele>
<time>2014-06-01T20:39:12Z</time>
</trkpt>
<trkpt lat="46.969609018559204" lon="7.5107307326779145">
<ele>603.7184824218743</ele>
<time>2014-06-01T20:39:18Z</time>
</trkpt>
<trkpt lat="46.969696018559205" lon="7.510598732677915">
<ele>604.3584824218743</ele>
<time>2014-06-01T20:39:23Z</time>
</trkpt>
<trkpt lat="46.969831018559205" lon="7.510275732677915">
<ele>605.5194824218743</ele>
<time>2014-06-01T20:39:32Z</time>
</trkpt>
<trkpt lat="46.96995401855921" lon="7.510196732677914">
<ele>606.4494824218742</ele>
<time>2014-06-01T20:39:37Z</time>
</trkpt>
<trkpt lat="46.97007201855921" lon="7.5101907326779145">
<ele>607.3294824218742</ele>
<time>2014-06-01T20:39:41Z</time>
</trkpt>
<trkpt lat="46.970565018559206" lon="7.5106417326779145">
<ele>611.3394824218742</ele>
<time>2014-06-01T20:40:03Z</time>
</trkpt>
<trkpt lat="46.970754018559205" lon="7.5106867326779145">
<ele>613.0984824218742</ele>
<time>2014-06-01T20:40:10Z</time>
</trkpt>
<trkpt lat="46.970982018559205" lon="7.510684732677914">
<ele>615.0384824218743</ele>
<time>2014-06-01T20:40:18Z</time>
</trkpt>
<trkpt lat="46.97111301855921" lon="7.5106867326779145">
<ele>616.1094824218743</ele>
<time>2014-06-01T20:40:23Z</time>
</trkpt>
<trkpt lat="46.97160901855921" lon="7.510579732677915">
<ele>619.9284824218743</ele>
<time>2014-06-01T20:40:40Z</time>
</trkpt>
<trkpt lat="46.97190401855921" lon="7.510551732677914">
<ele>622.3084824218743</ele>
<time>2014-06-01T20:40:50Z</time>
</trkpt>
<trkpt lat="46.97231501855921" lon="7.510558732677914">
<ele>625.8194824218742</ele>
<time>2014-06-01T20:41:04Z</time>
</trkpt>
<trkpt lat="46.972521018559206" lon="7.5104387326779145">
<ele>626.0584824218743</ele>
<time>2014-06-01T20:41:11Z</time>
</trkpt>
<trkpt lat="46.973127018559204" lon="7.510008732677915">
<ele>626.1784824218743</ele>
<time>2014-06-01T20:41:34Z</time>
</trkpt>
<trkpt lat="46.9733900185592" lon="7.509808732677914">
<ele>628.2894824218743</ele>
<time>2014-06-01T20:41:44Z</time>
</trkpt>
<trkpt lat="46.9737410185592" lon="7.509540732677914">
<ele>630.3994824218743</ele>
<time>2014-06-01T20:41:58Z</time>
</trkpt>
<trkpt lat="46.9739810185592" lon="7.509306732677914">
<ele>631.7094824218742</ele>
<time>2014-06-01T20:42:07Z</time>
</trkpt>
<trkpt lat="46.974233018559204" lon="7.509107732677914">
<ele>634.1794824218742</ele>
<time>2014-06-01T20:42:21Z</time>
</trkpt>
<trkpt lat="46.9742530185592" lon="7.508775732677914">
<ele>632.2694824218743</ele>
<time>2014-06-01T20:42:24Z</time>
</trkpt>
<trkpt lat="46.974244018559205" lon="7.508541732677914">
<ele>630.3594824218743</ele>
<time>2014-06-01T20:42:26Z</time>
</trkpt>
<trkpt lat="46.974233018559204" lon="7.508171732677914">
<ele>627.6084824218743</ele>
<time>2014-06-01T20:42:28Z</time>
</trkpt>
<trkpt lat="46.974193018559205" lon="7.507935732677914">
<ele>625.2194824218743</ele>
<time>2014-06-01T20:42:30Z</time>
</trkpt>
<trkpt lat="46.9741520185592" lon="7.507606732677914">
<ele>622.5294824218743</ele>
<time>2014-06-01T20:42:33Z</time>
</trkpt>
<trkpt lat="46.974123018559204" lon="7.5074767326779135">
<ele>621.5794824218742</ele>
<time>2014-06-01T20:42:34Z</time>
</trkpt>
<trkpt lat="46.9741410185592" lon="7.5072477326779135">
<ele>620.6294824218742</ele>
<time>2014-06-01T20:42:39Z</time>
</trkpt>
<trkpt lat="46.9741550185592" lon="7.507137732677913">
<ele>620.1994824218742</ele>
<time>2014-06-01T20:42:42Z</time>
</trkpt>
<trkpt lat="46.9741920185592" lon="7.507022732677913">
<ele>620.1994824218742</ele>
<time>2014-06-01T20:42:45Z</time>
</trkpt>
<trkpt lat="46.9742490185592" lon="7.506913732677913">
<ele>620.7594824218742</ele>
<time>2014-06-01T20:42:48Z</time>
</trkpt>
<trkpt lat="46.9748600185592" lon="7.505940732677913">
<ele>624.8294824218742</ele>
<time>2014-06-01T20:43:18Z</time>
</trkpt>
<trkpt lat="46.9750570185592" lon="7.505583732677913">
<ele>625.6994824218742</ele>
<time>2014-06-01T20:43:29Z</time>
</trkpt>
<trkpt lat="46.9752790185592" lon="7.505252732677913">
<ele>628.7384824218742</ele>
<time>2014-06-01T20:43:40Z</time>
</trkpt>
<trkpt lat="46.9755190185592" lon="7.5049467326779125">
<ele>630.7094824218742</ele>
<time>2014-06-01T20:43:51Z</time>
</trkpt>
<trkpt lat="46.9756480185592" lon="7.504811732677912">
<ele>631.4994824218742</ele>
<time>2014-06-01T20:43:53Z</time>
</trkpt>
<trkpt lat="46.9763280185592" lon="7.503994732677913">
<ele>631.2884824218742</ele>
<time>2014-06-01T20:44:10Z</time>
</trkpt>
<trkpt lat="46.976459018559204" lon="7.503869732677913">
<ele>631.4784824218742</ele>
<time>2014-06-01T20:44:12Z</time>
</trkpt>
<trkpt lat="46.9766030185592" lon="7.503763732677913">
<ele>631.7884824218742</ele>
<time>2014-06-01T20:44:15Z</time>
</trkpt>
<trkpt lat="46.9767670185592" lon="7.503678732677913">
<ele>631.9394824218741</ele>
<time>2014-06-01T20:44:18Z</time>
</trkpt>
<trkpt lat="46.9769540185592" lon="7.503604732677913">
<ele>632.1684824218742</ele>
<time>2014-06-01T20:44:22Z</time>
</trkpt>
<trkpt lat="46.9788710185592" lon="7.5033277326779135">
<ele>631.8234824218741</ele>
<time>2014-06-01T20:44:57Z</time>
</trkpt>
<trkpt lat="46.979373018559194" lon="7.503255732677913">
<ele>631.4784824218741</ele>
<time>2014-06-01T20:45:06Z</time>
</trkpt>
<trkpt lat="46.979496018559196" lon="7.503215732677913">
<ele>631.288482421874</ele>
<time>2014-06-01T20:45:09Z</time>
</trkpt>
<trkpt lat="46.9796130185592" lon="7.503134732677913">
<ele>630.779482421874</ele>
<time>2014-06-01T20:45:11Z</time>
</trkpt>
<trkpt lat="46.979738018559196" lon="7.502997732677914">
<ele>629.889482421874</ele>
<time>2014-06-01T20:45:14Z</time>
</trkpt>
<trkpt lat="46.9798390185592" lon="7.502874732677913">
<ele>629.189482421874</ele>
<time>2014-06-01T20:45:16Z</time>
</trkpt>
<trkpt lat="46.9802660185592" lon="7.501974732677914">
<ele>625.009482421874</ele>
<time>2014-06-01T20:45:26Z</time>
</trkpt>
<trkpt lat="46.9804580185592" lon="7.501645732677914">
<ele>624.0894824218741</ele>
<time>2014-06-01T20:45:30Z</time>
</trkpt>
<trkpt lat="46.9808570185592" lon="7.500896732677914">
<ele>622.509482421874</ele>
<time>2014-06-01T20:45:39Z</time>
</trkpt>
<trkpt lat="46.9812950185592" lon="7.500419732677914">
<ele>623.6184824218741</ele>
<time>2014-06-01T20:45:50Z</time>
</trkpt>
<trkpt lat="46.9823500185592" lon="7.499265732677914">
<ele>624.8194824218741</ele>
<time>2014-06-01T20:46:16Z</time>
</trkpt>
<trkpt lat="46.9825470185592" lon="7.498996732677914">
<ele>624.1584824218742</ele>
<time>2014-06-01T20:46:21Z</time>
</trkpt>
<trkpt lat="46.9829590185592" lon="7.498433732677914">
<ele>623.0894824218742</ele>
<time>2014-06-01T20:46:32Z</time>
</trkpt>
<trkpt lat="46.9829920185592" lon="7.498148732677914">
<ele>621.5294824218743</ele>
<time>2014-06-01T20:46:35Z</time>
</trkpt>
<trkpt lat="46.9832850185592" lon="7.497911732677914">
<ele>622.1584824218743</ele>
<time>2014-06-01T20:46:43Z</time>
</trkpt>
<trkpt lat="46.9833900185592" lon="7.497861732677914">
<ele>622.6494824218743</ele>
<time>2014-06-01T20:46:46Z</time>
</trkpt>
<trkpt lat="46.9835170185592" lon="7.497859732677914">
<ele>623.6994824218742</ele>
<time>2014-06-01T20:46:52Z</time>
</trkpt>
<trkpt lat="46.9836580185592" lon="7.497915732677914">
<ele>625.2194824218742</ele>
<time>2014-06-01T20:46:59Z</time>
</trkpt>
<trkpt lat="46.9839360185592" lon="7.498024732677914">
<ele>627.0794824218742</ele>
<time>2014-06-01T20:47:15Z</time>
</trkpt>
<trkpt lat="46.9840040185592" lon="7.498051732677914">
<ele>628.9394824218742</ele>
<time>2014-06-01T20:47:18Z</time>
</trkpt>
<trkpt lat="46.983960018559195" lon="7.497762732677914">
<ele>626.8484824218742</ele>
<time>2014-06-01T20:47:21Z</time>
</trkpt>
<trkpt lat="46.9839530185592" lon="7.497348732677914">
<ele>625.0194824218743</ele>
<time>2014-06-01T20:47:24Z</time>
</trkpt>
<trkpt lat="46.9837700185592" lon="7.497268732677914">
<ele>623.3994824218743</ele>
<time>2014-06-01T20:47:26Z</time>
</trkpt>
<trkpt lat="46.9836650185592" lon="7.4971767326779135">
<ele>622.3994824218743</ele>
<time>2014-06-01T20:47:27Z</time>
</trkpt>
<trkpt lat="46.9834970185592" lon="7.4970307326779135">
<ele>620.8084824218743</ele>
<time>2014-06-01T20:47:30Z</time>
</trkpt>
<trkpt lat="46.9833560185592" lon="7.496868732677913">
<ele>619.4394824218742</ele>
<time>2014-06-01T20:47:32Z</time>
</trkpt>
<trkpt lat="46.9832910185592" lon="7.496775732677913">
<ele>618.8794824218743</ele>
<time>2014-06-01T20:47:34Z</time>
</trkpt>
<trkpt lat="46.9832540185592" lon="7.496689732677914">
<ele>618.5484824218743</ele>
<time>2014-06-01T20:47:35Z</time>
</trkpt>
<trkpt lat="46.9832370185592" lon="7.496536732677914">
<ele>618.2694824218743</ele>
<time>2014-06-01T20:47:36Z</time>
</trkpt>
<trkpt lat="46.9832790185592" lon="7.496043732677914">
<ele>617.9284824218743</ele>
<time>2014-06-01T20:47:40Z</time>
</trkpt>
<trkpt lat="46.9832570185592" lon="7.495808732677914">
<ele>617.4494824218742</ele>
<time>2014-06-01T20:47:43Z</time>
</trkpt>
<trkpt lat="46.9829380185592" lon="7.4949917326779145">
<ele>612.5994824218742</ele>
<time>2014-06-01T20:47:51Z</time>
</trkpt>
<trkpt lat="46.9827700185592" lon="7.494401732677915">
<ele>609.2394824218742</ele>
<time>2014-06-01T20:47:56Z</time>
</trkpt>
<trkpt lat="46.9827260185592" lon="7.494182732677914">
<ele>608.1494824218742</ele>
<time>2014-06-01T20:47:58Z</time>
</trkpt>
<trkpt lat="46.9825660185592" lon="7.493909732677914">
<ele>606.3684824218742</ele>
<time>2014-06-01T20:48:02Z</time>
</trkpt>
<trkpt lat="46.9821520185592" lon="7.493457732677914">
<ele>603.1394824218742</ele>
<time>2014-06-01T20:48:10Z</time>
</trkpt>
<trkpt lat="46.9817410185592" lon="7.4928947326779145">
<ele>600.6494824218742</ele>
<time>2014-06-01T20:48:18Z</time>
</trkpt>
<trkpt lat="46.9815230185592" lon="7.492704732677915">
<ele>600.1994824218741</ele>
<time>2014-06-01T20:48:22Z</time>
</trkpt>
<trkpt lat="46.9806250185592" lon="7.492229732677915">
<ele>599.9994824218741</ele>
<time>2014-06-01T20:48:36Z</time>
</trkpt>
<trkpt lat="46.9803020185592" lon="7.4920367326779145">
<ele>599.9994824218741</ele>
<time>2014-06-01T20:48:41Z</time>
</trkpt>
<trkpt lat="46.9800780185592" lon="7.491822732677915">
<ele>599.9994824218741</ele>
<time>2014-06-01T20:48:46Z</time>
</trkpt>
<trkpt lat="46.9799220185592" lon="7.491595732677915">
<ele>599.9994824218741</ele>
<time>2014-06-01T20:48:50Z</time>
</trkpt>
<trkpt lat="46.9798190185592" lon="7.491380732677915">
<ele>599.9994824218741</ele>
<time>2014-06-01T20:48:53Z</time>
</trkpt>
<trkpt lat="46.9797590185592" lon="7.491197732677915">
<ele>599.9994824218741</ele>
<time>2014-06-01T20:48:56Z</time>
</trkpt>
<trkpt lat="46.9797000185592" lon="7.491030732677915">
<ele>599.9994824218741</ele>
<time>2014-06-01T20:48:58Z</time>
</trkpt>
<trkpt lat="46.9796110185592" lon="7.490659732677915">
<ele>600.1094824218741</ele>
<time>2014-06-01T20:49:04Z</time>
</trkpt>
<trkpt lat="46.9795990185592" lon="7.490564732677915">
<ele>600.169482421874</ele>
<time>2014-06-01T20:49:05Z</time>
</trkpt>
<trkpt lat="46.9794260185592" lon="7.490019732677915">
<ele>600.298482421874</ele>
<time>2014-06-01T20:49:11Z</time>
</trkpt>
<trkpt lat="46.979200018559204" lon="7.489515732677915">
<ele>597.178482421874</ele>
<time>2014-06-01T20:49:17Z</time>
</trkpt>
<trkpt lat="46.979135018559205" lon="7.489392732677914">
<ele>596.169482421874</ele>
<time>2014-06-01T20:49:18Z</time>
</trkpt>
<trkpt lat="46.979053018559206" lon="7.489267732677915">
<ele>594.929482421874</ele>
<time>2014-06-01T20:49:20Z</time>
</trkpt>
<trkpt lat="46.979008018559206" lon="7.489199732677915">
<ele>594.2494824218741</ele>
<time>2014-06-01T20:49:20Z</time>
</trkpt>
<trkpt lat="46.978952018559205" lon="7.489125732677915">
<ele>593.4694824218741</ele>
<time>2014-06-01T20:49:21Z</time>
</trkpt>
<trkpt lat="46.978412018559204" lon="7.488594732677916">
<ele>587.0394824218741</ele>
<time>2014-06-01T20:49:28Z</time>
</trkpt>
<trkpt lat="46.9784490185592" lon="7.4884727326779155">
<ele>586.5294824218741</ele>
<time>2014-06-01T20:49:29Z</time>
</trkpt>
<trkpt lat="46.9785430185592" lon="7.488084732677915">
<ele>584.8394824218741</ele>
<time>2014-06-01T20:49:33Z</time>
</trkpt>
<trkpt lat="46.9789100185592" lon="7.486394732677915">
<ele>578.8494824218741</ele>
<time>2014-06-01T20:49:47Z</time>
</trkpt>
<trkpt lat="46.9788850185592" lon="7.486228732677915">
<ele>577.8794824218741</ele>
<time>2014-06-01T20:49:49Z</time>
</trkpt>
<trkpt lat="46.9790730185592" lon="7.4853847326779155">
<ele>575.7094824218741</ele>
<time>2014-06-01T20:49:57Z</time>
</trkpt>
<trkpt lat="46.979181018559196" lon="7.484915732677916">
<ele>574.8484824218741</ele>
<time>2014-06-01T20:50:02Z</time>
</trkpt>
<trkpt lat="46.9793260185592" lon="7.4845077326779155">
<ele>574.9594824218741</ele>
<time>2014-06-01T20:50:07Z</time>
</trkpt>
<trkpt lat="46.9797680185592" lon="7.4838467326779154">
<ele>577.6194824218741</ele>
<time>2014-06-01T20:50:27Z</time>
</trkpt>
<trkpt lat="46.979682018559195" lon="7.483740732677916">
<ele>576.3484824218741</ele>
<time>2014-06-01T20:50:29Z</time>
</trkpt>
<trkpt lat="46.97942401855919" lon="7.483580732677916">
<ele>572.8894824218742</ele>
<time>2014-06-01T20:50:33Z</time>
</trkpt>
<trkpt lat="46.97937601855919" lon="7.483467732677916">
<ele>571.9594824218742</ele>
<time>2014-06-01T20:50:35Z</time>
</trkpt>
<trkpt lat="46.97936801855919" lon="7.483298732677916">
<ele>571.2884824218742</ele>
<time>2014-06-01T20:50:37Z</time>
</trkpt>
<trkpt lat="46.97973801855919" lon="7.482385732677916">
<ele>571.7594824218742</ele>
<time>2014-06-01T20:50:48Z</time>
</trkpt>
<trkpt lat="46.97999501855919" lon="7.481474732677916">
<ele>571.2594824218742</ele>
<time>2014-06-01T20:50:59Z</time>
</trkpt>
<trkpt lat="46.980533018559186" lon="7.479972732677916">
<ele>569.3594824218742</ele>
<time>2014-06-01T20:51:17Z</time>
</trkpt>
<trkpt lat="46.98038601855919" lon="7.479992732677916">
<ele>568.2094824218742</ele>
<time>2014-06-01T20:51:19Z</time>
</trkpt>
<trkpt lat="46.97989901855919" lon="7.4800727326779155">
<ele>564.4784824218742</ele>
<time>2014-06-01T20:51:25Z</time>
</trkpt>
<trkpt lat="46.97961501855919" lon="7.480096732677915">
<ele>562.1294824218742</ele>
<time>2014-06-01T20:51:28Z</time>
</trkpt>
<trkpt lat="46.97951101855919" lon="7.4800597326779155">
<ele>561.0994824218742</ele>
<time>2014-06-01T20:51:29Z</time>
</trkpt>
<trkpt lat="46.979424018559186" lon="7.480033732677915">
<ele>560.2694824218742</ele>
<time>2014-06-01T20:51:30Z</time>
</trkpt>
<trkpt lat="46.97943401855919" lon="7.479962732677915">
<ele>560.1394824218742</ele>
<time>2014-06-01T20:51:31Z</time>
</trkpt>
<trkpt lat="46.97941601855919" lon="7.479887732677915">
<ele>559.7794824218741</ele>
<time>2014-06-01T20:51:31Z</time>
</trkpt>
<trkpt lat="46.97936501855919" lon="7.4798437326779155">
<ele>559.2494824218742</ele>
<time>2014-06-01T20:51:32Z</time>
</trkpt>
<trkpt lat="46.97939701855919" lon="7.479685732677916">
<ele>559.0794824218742</ele>
<time>2014-06-01T20:51:34Z</time>
</trkpt>
<trkpt lat="46.97946501855919" lon="7.479324732677916">
<ele>558.5984824218742</ele>
<time>2014-06-01T20:51:38Z</time>
</trkpt>
<trkpt lat="46.97952901855919" lon="7.478981732677916">
<ele>558.0694824218742</ele>
<time>2014-06-01T20:51:41Z</time>
</trkpt>
<trkpt lat="46.97957901855919" lon="7.478883732677915">
<ele>558.1194824218742</ele>
<time>2014-06-01T20:51:43Z</time>
</trkpt>
<trkpt lat="46.97957401855919" lon="7.478736732677915">
<ele>557.6494824218742</ele>
<time>2014-06-01T20:51:44Z</time>
</trkpt>
<trkpt lat="46.97974601855919" lon="7.477637732677915">
<ele>555.5494824218741</ele>
<time>2014-06-01T20:51:55Z</time>
</trkpt>
<trkpt lat="46.97980901855919" lon="7.477192732677915">
<ele>554.6084824218741</ele>
<time>2014-06-01T20:51:59Z</time>
</trkpt>
<trkpt lat="46.979849018559186" lon="7.476800732677916">
<ele>553.5484824218742</ele>
<time>2014-06-01T20:52:03Z</time>
</trkpt>
<trkpt lat="46.97993301855919" lon="7.476048732677915">
<ele>552.1094824218742</ele>
<time>2014-06-01T20:52:10Z</time>
</trkpt>
<trkpt lat="46.98000901855919" lon="7.475195732677915">
<ele>550.5294824218741</ele>
<time>2014-06-01T20:52:18Z</time>
</trkpt>
<trkpt lat="46.980041018559184" lon="7.474765732677915">
<ele>549.6994824218741</ele>
<time>2014-06-01T20:52:22Z</time>
</trkpt>
<trkpt lat="46.98005901855918" lon="7.474553732677915">
<ele>549.3194824218741</ele>
<time>2014-06-01T20:52:24Z</time>
</trkpt>
<trkpt lat="46.980013018559184" lon="7.474494732677915">
<ele>548.8694824218741</ele>
<time>2014-06-01T20:52:25Z</time>
</trkpt>
<trkpt lat="46.98001901855918" lon="7.474139732677915">
<ele>548.039482421874</ele>
<time>2014-06-01T20:52:28Z</time>
</trkpt>
<trkpt lat="46.980035018559185" lon="7.473225732677915">
<ele>545.079482421874</ele>
<time>2014-06-01T20:52:36Z</time>
</trkpt>
<trkpt lat="46.980029018559186" lon="7.472743732677915">
<ele>543.859482421874</ele>
<time>2014-06-01T20:52:40Z</time>
</trkpt>
<trkpt lat="46.980035018559185" lon="7.472491732677915">
<ele>543.319482421874</ele>
<time>2014-06-01T20:52:43Z</time>
</trkpt>
<trkpt lat="46.97999201855919" lon="7.472413732677915">
<ele>542.749482421874</ele>
<time>2014-06-01T20:52:43Z</time>
</trkpt>
<trkpt lat="46.979993018559185" lon="7.472264732677915">
<ele>542.3994824218739</ele>
<time>2014-06-01T20:52:45Z</time>
</trkpt>
<trkpt lat="46.97999501855919" lon="7.472201732677915">
<ele>542.2594824218739</ele>
<time>2014-06-01T20:52:45Z</time>
</trkpt>
<trkpt lat="46.98000601855919" lon="7.471344732677915">
<ele>540.2894824218739</ele>
<time>2014-06-01T20:52:53Z</time>
</trkpt>
<trkpt lat="46.980001018559186" lon="7.471122732677915">
<ele>539.6994824218739</ele>
<time>2014-06-01T20:52:55Z</time>
</trkpt>
<trkpt lat="46.97998601855919" lon="7.470911732677915">
<ele>539.0894824218739</ele>
<time>2014-06-01T20:52:57Z</time>
</trkpt>
<trkpt lat="46.97989101855919" lon="7.470128732677915">
<ele>536.4194824218739</ele>
<time>2014-06-01T20:53:04Z</time>
</trkpt>
<trkpt lat="46.97985401855919" lon="7.469770732677914">
<ele>535.4494824218739</ele>
<time>2014-06-01T20:53:07Z</time>
</trkpt>
<trkpt lat="46.979723018559184" lon="7.468918732677914">
<ele>532.6494824218739</ele>
<time>2014-06-01T20:53:15Z</time>
</trkpt>
<trkpt lat="46.97963701855918" lon="7.467849732677914">
<ele>528.999482421874</ele>
<time>2014-06-01T20:53:24Z</time>
</trkpt>
<trkpt lat="46.979630018559185" lon="7.467710732677914">
<ele>528.599482421874</ele>
<time>2014-06-01T20:53:26Z</time>
</trkpt>
<trkpt lat="46.97961801855919" lon="7.467615732677914">
<ele>528.228482421874</ele>
<time>2014-06-01T20:53:26Z</time>
</trkpt>
<trkpt lat="46.97959201855919" lon="7.467498732677914">
<ele>527.619482421874</ele>
<time>2014-06-01T20:53:27Z</time>
</trkpt>
<trkpt lat="46.97955201855919" lon="7.467313732677914">
<ele>526.5344824218739</ele>
<time>2014-06-01T20:53:29Z</time>
</trkpt>
<trkpt lat="46.97946201855919" lon="7.466903732677914">
<ele>525.4494824218739</ele>
<time>2014-06-01T20:53:33Z</time>
</trkpt>
<trkpt lat="46.97932001855919" lon="7.466282732677914">
<ele>522.9184824218739</ele>
<time>2014-06-01T20:53:38Z</time>
</trkpt>
<trkpt lat="46.979280018559194" lon="7.466097732677914">
<ele>522.129482421874</ele>
<time>2014-06-01T20:53:40Z</time>
</trkpt>
<trkpt lat="46.979288018559195" lon="7.4659657326779145">
<ele>522.1584824218739</ele>
<time>2014-06-01T20:53:42Z</time>
</trkpt>
<trkpt lat="46.9792650185592" lon="7.465917732677915">
<ele>521.728482421874</ele>
<time>2014-06-01T20:53:42Z</time>
</trkpt>
<trkpt lat="46.979198018559195" lon="7.4655907326779145">
<ele>520.249482421874</ele>
<time>2014-06-01T20:53:45Z</time>
</trkpt>
<trkpt lat="46.9789970185592" lon="7.464988732677915">
<ele>515.5194824218739</ele>
<time>2014-06-01T20:53:50Z</time>
</trkpt>
<trkpt lat="46.978787018559196" lon="7.464369732677914">
<ele>510.08848242187395</ele>
<time>2014-06-01T20:53:56Z</time>
</trkpt>
<trkpt lat="46.978739018559196" lon="7.464140732677914">
<ele>508.7194824218739</ele>
<time>2014-06-01T20:53:57Z</time>
</trkpt>
<trkpt lat="46.978593018559195" lon="7.463406732677915">
<ele>504.1594824218739</ele>
<time>2014-06-01T20:54:03Z</time>
</trkpt>
<trkpt lat="46.9785020185592" lon="7.462927732677914">
<ele>501.6494824218739</ele>
<time>2014-06-01T20:54:07Z</time>
</trkpt>
<trkpt lat="46.978472018559195" lon="7.462796732677915">
<ele>500.9194824218739</ele>
<time>2014-06-01T20:54:08Z</time>
</trkpt>
<trkpt lat="46.978450018559194" lon="7.462696732677915">
<ele>500.35848242187393</ele>
<time>2014-06-01T20:54:09Z</time>
</trkpt>
<trkpt lat="46.978373018559196" lon="7.462386732677915">
<ele>498.69948242187394</ele>
<time>2014-06-01T20:54:12Z</time>
</trkpt>
<trkpt lat="46.97836301855919" lon="7.462346732677915">
<ele>498.51948242187393</ele>
<time>2014-06-01T20:54:12Z</time>
</trkpt>
<trkpt lat="46.97828501855919" lon="7.462026732677915">
<ele>497.8494824218739</ele>
<time>2014-06-01T20:54:16Z</time>
</trkpt>
<trkpt lat="46.97827301855919" lon="7.461652732677915">
<ele>497.7684824218739</ele>
<time>2014-06-01T20:54:20Z</time>
</trkpt>
<trkpt lat="46.978289018559195" lon="7.461510732677914">
<ele>497.64948242187387</ele>
<time>2014-06-01T20:54:22Z</time>
</trkpt>
<trkpt lat="46.978343018559194" lon="7.461272732677914">
<ele>497.67848242187387</ele>
<time>2014-06-01T20:54:27Z</time>
</trkpt>
<trkpt lat="46.97839201855919" lon="7.461140732677914">
<ele>498.23848242187387</ele>
<time>2014-06-01T20:54:30Z</time>
</trkpt>
<trkpt lat="46.97852701855919" lon="7.460770732677914">
<ele>499.7594824218739</ele>
<time>2014-06-01T20:54:38Z</time>
</trkpt>
<trkpt lat="46.97849001855919" lon="7.460667732677914">
<ele>499.1894824218739</ele>
<time>2014-06-01T20:54:39Z</time>
</trkpt>
<trkpt lat="46.978469018559196" lon="7.460593732677914">
<ele>498.8594824218739</ele>
<time>2014-06-01T20:54:40Z</time>
</trkpt>
<trkpt lat="46.978481018559194" lon="7.4605517326779145">
<ele>499.0094824218739</ele>
<time>2014-06-01T20:54:40Z</time>
</trkpt>
<trkpt lat="46.978466018559196" lon="7.460444732677915">
<ele>498.7594824218739</ele>
<time>2014-06-01T20:54:42Z</time>
</trkpt>
<trkpt lat="46.978433018559194" lon="7.460403732677914">
<ele>498.3094824218739</ele>
<time>2014-06-01T20:54:42Z</time>
</trkpt>
<trkpt lat="46.9784570185592" lon="7.460300732677914">
<ele>498.5994824218739</ele>
<time>2014-06-01T20:54:44Z</time>
</trkpt>
<trkpt lat="46.978565018559195" lon="7.459917732677914">
<ele>499.6494824218739</ele>
<time>2014-06-01T20:54:53Z</time>
</trkpt>
<trkpt lat="46.97862501855919" lon="7.459655732677914">
<ele>499.93948242187395</ele>
<time>2014-06-01T20:54:56Z</time>
</trkpt>
<trkpt lat="46.97865901855919" lon="7.459405732677913">
<ele>499.91948242187397</ele>
<time>2014-06-01T20:55:00Z</time>
</trkpt>
<trkpt lat="46.978692018559194" lon="7.458877732677913">
<ele>499.37948242187394</ele>
<time>2014-06-01T20:55:07Z</time>
</trkpt>
<trkpt lat="46.97872701855919" lon="7.458560732677913">
<ele>499.18948242187395</ele>
<time>2014-06-01T20:55:11Z</time>
</trkpt>
<trkpt lat="46.97881401855919" lon="7.458224732677913">
<ele>499.47948242187397</ele>
<time>2014-06-01T20:55:15Z</time>
</trkpt>
<trkpt lat="46.97886801855919" lon="7.458090732677913">
<ele>499.839482421874</ele>
<time>2014-06-01T20:55:17Z</time>
</trkpt>
<trkpt lat="46.97897301855919" lon="7.457825732677914">
<ele>500.529482421874</ele>
<time>2014-06-01T20:55:24Z</time>
</trkpt>
<trkpt lat="46.97921201855919" lon="7.457269732677914">
<ele>502.07848242187396</ele>
<time>2014-06-01T20:55:38Z</time>
</trkpt>
<trkpt lat="46.97942601855919" lon="7.456872732677914">
<ele>503.75948242187394</ele>
<time>2014-06-01T20:55:49Z</time>
</trkpt>
<trkpt lat="46.97950201855919" lon="7.456759732677914">
<ele>504.33848242187395</ele>
<time>2014-06-01T20:55:53Z</time>
</trkpt>
<trkpt lat="46.979582018559185" lon="7.456658732677914">
<ele>504.93948242187395</ele>
<time>2014-06-01T20:55:57Z</time>
</trkpt>
<trkpt lat="46.97979801855919" lon="7.456481732677914">
<ele>506.409482421874</ele>
<time>2014-06-01T20:56:06Z</time>
</trkpt>
<trkpt lat="46.97989301855919" lon="7.456425732677914">
<ele>507.099482421874</ele>
<time>2014-06-01T20:56:09Z</time>
</trkpt>
<trkpt lat="46.979998018559186" lon="7.4563767326779145">
<ele>507.889482421874</ele>
<time>2014-06-01T20:56:14Z</time>
</trkpt>
<trkpt lat="46.98026201855919" lon="7.456310732677914">
<ele>509.819482421874</ele>
<time>2014-06-01T20:56:26Z</time>
</trkpt>
<trkpt lat="46.98039401855919" lon="7.456308732677914">
<ele>510.999482421874</ele>
<time>2014-06-01T20:56:31Z</time>
</trkpt>
<trkpt lat="46.98048101855919" lon="7.456322732677914">
<ele>511.898482421874</ele>
<time>2014-06-01T20:56:37Z</time>
</trkpt>
<trkpt lat="46.98056701855919" lon="7.456349732677914">
<ele>512.907482421874</ele>
<time>2014-06-01T20:56:42Z</time>
</trkpt>
<trkpt lat="46.980628018559194" lon="7.456407732677914">
<ele>513.939482421874</ele>
<time>2014-06-01T20:56:46Z</time>
</trkpt>
<trkpt lat="46.980679018559194" lon="7.456511732677915">
<ele>515.249482421874</ele>
<time>2014-06-01T20:56:51Z</time>
</trkpt>
<trkpt lat="46.980681018559196" lon="7.456600732677915">
<ele>515.999482421874</ele>
<time>2014-06-01T20:56:55Z</time>
</trkpt>
<trkpt lat="46.9806830185592" lon="7.456721732677915">
<ele>516.829482421874</ele>
<time>2014-06-01T20:56:59Z</time>
</trkpt>
<trkpt lat="46.9806350185592" lon="7.456750732677914">
<ele>516.5094824218739</ele>
<time>2014-06-01T20:57:00Z</time>
</trkpt>
<trkpt lat="46.9806060185592" lon="7.456809732677915">
<ele>516.5094824218739</ele>
<time>2014-06-01T20:57:01Z</time>
</trkpt>
<trkpt lat="46.9806000185592" lon="7.456848732677915">
<ele>516.6394824218739</ele>
<time>2014-06-01T20:57:01Z</time>
</trkpt>
<trkpt lat="46.9805980185592" lon="7.456898732677915">
<ele>516.859482421874</ele>
<time>2014-06-01T20:57:03Z</time>
</trkpt>
<trkpt lat="46.980495018559196" lon="7.456895732677914">
<ele>515.848482421874</ele>
<time>2014-06-01T20:57:04Z</time>
</trkpt>
<trkpt lat="46.9799000185592" lon="7.456949732677915">
<ele>510.078482421874</ele>
<time>2014-06-01T20:57:10Z</time>
</trkpt>
<trkpt lat="46.979617018559196" lon="7.456977732677915">
<ele>506.559482421874</ele>
<time>2014-06-01T20:57:13Z</time>
</trkpt>
<trkpt lat="46.9789750185592" lon="7.457006732677915">
<ele>499.249482421874</ele>
<time>2014-06-01T20:57:21Z</time>
</trkpt>
<trkpt lat="46.9783010185592" lon="7.457073732677914">
<ele>493.919482421874</ele>
<time>2014-06-01T20:57:29Z</time>
</trkpt>
<trkpt lat="46.9777700185592" lon="7.4570757326779145">
<ele>492.648482421874</ele>
<time>2014-06-01T20:57:35Z</time>
</trkpt>
<trkpt lat="46.9776070185592" lon="7.457044732677915">
<ele>492.259482421874</ele>
<time>2014-06-01T20:57:37Z</time>
</trkpt>
<trkpt lat="46.9772130185592" lon="7.456920732677915">
<ele>495.808482421874</ele>
<time>2014-06-01T20:58:05Z</time>
</trkpt>
<trkpt lat="46.977006018559194" lon="7.456856732677915">
<ele>497.733482421874</ele>
<time>2014-06-01T20:58:19Z</time>
</trkpt>
<trkpt lat="46.97693901855919" lon="7.456836732677915">
<ele>499.659482421874</ele>
<time>2014-06-01T20:58:24Z</time>
</trkpt>
<trkpt lat="46.976353018559195" lon="7.4566697326779146">
<ele>512.2594824218739</ele>
<time>2014-06-01T20:59:05Z</time>
</trkpt>
<trkpt lat="46.976333018559195" lon="7.456664732677915">
<ele>512.8084824218739</ele>
<time>2014-06-01T20:59:07Z</time>
</trkpt>
<trkpt lat="46.9763210185592" lon="7.456572732677914">
<ele>513.379482421874</ele>
<time>2014-06-01T20:59:13Z</time>
</trkpt>
<trkpt lat="46.9759910185592" lon="7.456419732677914">
<ele>522.6684824218739</ele>
<time>2014-06-01T20:59:47Z</time>
</trkpt>
<trkpt lat="46.9759460185592" lon="7.456397732677914">
<ele>523.959482421874</ele>
<time>2014-06-01T20:59:52Z</time>
</trkpt>
<trkpt lat="46.975905018559196" lon="7.456377732677914">
<ele>525.118482421874</ele>
<time>2014-06-01T20:59:56Z</time>
</trkpt>
<trkpt lat="46.975855018559194" lon="7.456346732677914">
<ele>526.569482421874</ele>
<time>2014-06-01T21:00:01Z</time>
</trkpt>
<trkpt lat="46.9757720185592" lon="7.456294732677914">
<ele>527.598482421874</ele>
<time>2014-06-01T21:00:03Z</time>
</trkpt>
<trkpt lat="46.975663018559196" lon="7.456221732677913">
<ele>528.308482421874</ele>
<time>2014-06-01T21:00:05Z</time>
</trkpt>
<trkpt lat="46.975382018559195" lon="7.455948732677913">
<ele>530.288482421874</ele>
<time>2014-06-01T21:00:12Z</time>
</trkpt>
<trkpt lat="46.975219018559194" lon="7.455738732677913">
<ele>531.468482421874</ele>
<time>2014-06-01T21:00:16Z</time>
</trkpt>
<trkpt lat="46.97509601855919" lon="7.455525732677914">
<ele>532.439482421874</ele>
<time>2014-06-01T21:00:20Z</time>
</trkpt>
<trkpt lat="46.97492401855919" lon="7.455148732677913">
<ele>532.839482421874</ele>
<time>2014-06-01T21:00:26Z</time>
</trkpt>
<trkpt lat="46.97427801855919" lon="7.453507732677913">
<ele>526.689482421874</ele>
<time>2014-06-01T21:00:52Z</time>
</trkpt>
<trkpt lat="46.97371701855919" lon="7.452151732677913">
<ele>512.308482421874</ele>
<time>2014-06-01T21:01:13Z</time>
</trkpt>
<trkpt lat="46.97368301855919" lon="7.452177732677913">
<ele>511.40948242187403</ele>
<time>2014-06-01T21:01:14Z</time>
</trkpt>
<trkpt lat="46.973634018559196" lon="7.4520547326779125">
<ele>510.13948242187405</ele>
<time>2014-06-01T21:01:15Z</time>
</trkpt>
<trkpt lat="46.973406018559196" lon="7.451481732677912">
<ele>504.27848242187406</ele>
<time>2014-06-01T21:01:20Z</time>
</trkpt>
<trkpt lat="46.9733550185592" lon="7.451357732677913">
<ele>502.99948242187406</ele>
<time>2014-06-01T21:01:21Z</time>
</trkpt>
<trkpt lat="46.973381018559195" lon="7.451316732677912">
<ele>503.8084824218741</ele>
<time>2014-06-01T21:01:23Z</time>
</trkpt>
<trkpt lat="46.9733940185592" lon="7.451246732677912">
<ele>504.3084824218741</ele>
<time>2014-06-01T21:01:25Z</time>
</trkpt>
<trkpt lat="46.973381018559195" lon="7.451179732677913">
<ele>504.0194824218741</ele>
<time>2014-06-01T21:01:27Z</time>
</trkpt>
<trkpt lat="46.973418018559194" lon="7.451142732677913">
<ele>505.1484824218741</ele>
<time>2014-06-01T21:01:32Z</time>
</trkpt>
<trkpt lat="46.9734620185592" lon="7.451089732677913">
<ele>506.5784824218741</ele>
<time>2014-06-01T21:01:37Z</time>
</trkpt>
<trkpt lat="46.973516018559195" lon="7.451000732677913">
<ele>508.3694824218741</ele>
<time>2014-06-01T21:01:45Z</time>
</trkpt>
<trkpt lat="46.9735320185592" lon="7.451014732677913">
<ele>508.8284824218741</ele>
<time>2014-06-01T21:01:47Z</time>
</trkpt>
<trkpt lat="46.973578018559195" lon="7.4510127326779125">
<ele>510.23848242187415</ele>
<time>2014-06-01T21:01:51Z</time>
</trkpt>
<trkpt lat="46.97360701855919" lon="7.450969732677913">
<ele>511.21948242187415</ele>
<time>2014-06-01T21:01:55Z</time>
</trkpt>
<trkpt lat="46.97361001855919" lon="7.450957732677913">
<ele>511.32948242187416</ele>
<time>2014-06-01T21:01:56Z</time>
</trkpt>
<trkpt lat="46.973612018559194" lon="7.450935732677912">
<ele>511.44948242187417</ele>
<time>2014-06-01T21:01:56Z</time>
</trkpt>
<trkpt lat="46.973592018559195" lon="7.450870732677912">
<ele>510.98848242187415</ele>
<time>2014-06-01T21:01:57Z</time>
</trkpt>
<trkpt lat="46.973584018559194" lon="7.450862732677912">
<ele>510.76948242187416</ele>
<time>2014-06-01T21:01:58Z</time>
</trkpt>
<trkpt lat="46.973612018559194" lon="7.450786732677912">
<ele>511.8794824218742</ele>
<time>2014-06-01T21:02:03Z</time>
</trkpt>
<trkpt lat="46.9737120185592" lon="7.450579732677912">
<ele>515.8494824218742</ele>
<time>2014-06-01T21:02:20Z</time>
</trkpt>
<trkpt lat="46.973755018559196" lon="7.450489732677912">
<ele>517.5894824218742</ele>
<time>2014-06-01T21:02:26Z</time>
</trkpt>
<trkpt lat="46.9737800185592" lon="7.450414732677912">
<ele>518.7184824218742</ele>
<time>2014-06-01T21:02:31Z</time>
</trkpt>
<trkpt lat="46.9737910185592" lon="7.450343732677912">
<ele>519.3594824218742</ele>
<time>2014-06-01T21:02:35Z</time>
</trkpt>
<trkpt lat="46.9737940185592" lon="7.450290732677912">
<ele>519.6894824218742</ele>
<time>2014-06-01T21:02:35Z</time>
</trkpt>
<trkpt lat="46.9737730185592" lon="7.450136732677912">
<ele>519.6494824218743</ele>
<time>2014-06-01T21:02:38Z</time>
</trkpt>
<trkpt lat="46.9737400185592" lon="7.450060732677912">
<ele>518.9184824218743</ele>
<time>2014-06-01T21:02:39Z</time>
</trkpt>
<trkpt lat="46.973468018559196" lon="7.449605732677912">
<ele>512.2594824218743</ele>
<time>2014-06-01T21:02:49Z</time>
</trkpt>
<trkpt lat="46.973274018559195" lon="7.449200732677912">
<ele>509.0694824218743</ele>
<time>2014-06-01T21:02:57Z</time>
</trkpt>
<trkpt lat="46.97283301855919" lon="7.447964732677913">
<ele>512.6494824218743</ele>
<time>2014-06-01T21:03:20Z</time>
</trkpt>
<trkpt lat="46.972832018559195" lon="7.447871732677913">
<ele>513.6494824218743</ele>
<time>2014-06-01T21:03:21Z</time>
</trkpt>
<trkpt lat="46.97283901855919" lon="7.447839732677913">
<ele>514.2294824218743</ele>
<time>2014-06-01T21:03:22Z</time>
</trkpt>
<trkpt lat="46.97277701855919" lon="7.447765732677913">
<ele>513.2184824218743</ele>
<time>2014-06-01T21:03:23Z</time>
</trkpt>
<trkpt lat="46.972706018559194" lon="7.447678732677914">
<ele>511.97948242187437</ele>
<time>2014-06-01T21:03:24Z</time>
</trkpt>
<trkpt lat="46.97261401855919" lon="7.447563732677914">
<ele>510.1594824218744</ele>
<time>2014-06-01T21:03:25Z</time>
</trkpt>
<trkpt lat="46.972354018559194" lon="7.447245732677914">
<ele>509.59948242187437</ele>
<time>2014-06-01T21:03:30Z</time>
</trkpt>
<trkpt lat="46.972233018559194" lon="7.447096732677913">
<ele>509.82848242187436</ele>
<time>2014-06-01T21:03:33Z</time>
</trkpt>
<trkpt lat="46.97216401855919" lon="7.447005732677913">
<ele>509.7384824218744</ele>
<time>2014-06-01T21:03:35Z</time>
</trkpt>
<trkpt lat="46.97211401855919" lon="7.446921732677913">
<ele>509.73948242187436</ele>
<time>2014-06-01T21:03:36Z</time>
</trkpt>
<trkpt lat="46.97206101855919" lon="7.446830732677912">
<ele>509.59948242187437</ele>
<time>2014-06-01T21:03:37Z</time>
</trkpt>
<trkpt lat="46.971868018559185" lon="7.446520732677913">
<ele>508.7984824218744</ele>
<time>2014-06-01T21:03:41Z</time>
</trkpt>
<trkpt lat="46.97181301855918" lon="7.446444732677913">
<ele>508.5594824218744</ele>
<time>2014-06-01T21:03:42Z</time>
</trkpt>
<trkpt lat="46.97177401855918" lon="7.446389732677913">
<ele>508.3594824218744</ele>
<time>2014-06-01T21:03:43Z</time>
</trkpt>
<trkpt lat="46.97176501855918" lon="7.446377732677913">
<ele>508.30848242187443</ele>
<time>2014-06-01T21:03:43Z</time>
</trkpt>
<trkpt lat="46.971637018559186" lon="7.446221732677913">
<ele>507.6194824218744</ele>
<time>2014-06-01T21:03:45Z</time>
</trkpt>
<trkpt lat="46.97159301855918" lon="7.446176732677913">
<ele>507.8194824218744</ele>
<time>2014-06-01T21:03:46Z</time>
</trkpt>
<trkpt lat="46.97116801855918" lon="7.445799732677913">
<ele>506.8284824218744</ele>
<time>2014-06-01T21:03:54Z</time>
</trkpt>
<trkpt lat="46.971145018559184" lon="7.445780732677913">
<ele>506.8094824218744</ele>
<time>2014-06-01T21:03:54Z</time>
</trkpt>
<trkpt lat="46.97091501855918" lon="7.445590732677913">
<ele>506.1994824218744</ele>
<time>2014-06-01T21:03:58Z</time>
</trkpt>
<trkpt lat="46.970841018559184" lon="7.4455297326779135">
<ele>505.8684824218744</ele>
<time>2014-06-01T21:04:00Z</time>
</trkpt>
<trkpt lat="46.97051901855919" lon="7.445267732677913">
<ele>506.8894824218744</ele>
<time>2014-06-01T21:04:08Z</time>
</trkpt>
<trkpt lat="46.97036101855919" lon="7.445139732677913">
<ele>506.8194824218744</ele>
<time>2014-06-01T21:04:12Z</time>
</trkpt>
<trkpt lat="46.97032601855919" lon="7.445110732677914">
<ele>506.7494824218744</ele>
<time>2014-06-01T21:04:13Z</time>
</trkpt>
<trkpt lat="46.97021201855919" lon="7.445021732677914">
<ele>506.3284824218744</ele>
<time>2014-06-01T21:04:15Z</time>
</trkpt>
<trkpt lat="46.970117018559186" lon="7.4449197326779135">
<ele>506.7394824218744</ele>
<time>2014-06-01T21:04:17Z</time>
</trkpt>
<trkpt lat="46.96995601855919" lon="7.444762732677914">
<ele>507.3494824218744</ele>
<time>2014-06-01T21:04:23Z</time>
</trkpt>
<trkpt lat="46.96973701855919" lon="7.444562732677913">
<ele>508.4194824218744</ele>
<time>2014-06-01T21:04:31Z</time>
</trkpt>
<trkpt lat="46.96956701855919" lon="7.444405732677914">
<ele>508.80848242187443</ele>
<time>2014-06-01T21:04:35Z</time>
</trkpt>
<trkpt lat="46.96936601855919" lon="7.444232732677913">
<ele>508.65948242187443</ele>
<time>2014-06-01T21:04:39Z</time>
</trkpt>
<trkpt lat="46.96929401855919" lon="7.444171732677914">
<ele>508.46948242187443</ele>
<time>2014-06-01T21:04:41Z</time>
</trkpt>
<trkpt lat="46.96921601855919" lon="7.444105732677913">
<ele>508.8494824218744</ele>
<time>2014-06-01T21:04:43Z</time>
</trkpt>
<trkpt lat="46.968741018559186" lon="7.443803732677914">
<ele>509.4994824218744</ele>
<time>2014-06-01T21:04:59Z</time>
</trkpt>
<trkpt lat="46.968705018559184" lon="7.443763732677914">
<ele>509.7384824218744</ele>
<time>2014-06-01T21:05:00Z</time>
</trkpt>
<trkpt lat="46.968699018559185" lon="7.443726732677914">
<ele>510.2594824218744</ele>
<time>2014-06-01T21:05:01Z</time>
</trkpt>
<trkpt lat="46.968699018559185" lon="7.443681732677914">
<ele>511.0094824218744</ele>
<time>2014-06-01T21:05:02Z</time>
</trkpt>
<trkpt lat="46.968626018559185" lon="7.443671732677914">
<ele>510.2384824218744</ele>
<time>2014-06-01T21:05:03Z</time>
</trkpt>
<trkpt lat="46.96839101855918" lon="7.443606732677914">
<ele>508.1594824218744</ele>
<time>2014-06-01T21:05:05Z</time>
</trkpt>
<trkpt lat="46.96835201855918" lon="7.443584732677913">
<ele>507.93948242187435</ele>
<time>2014-06-01T21:05:06Z</time>
</trkpt>
<trkpt lat="46.96822801855918" lon="7.443513732677913">
<ele>507.7384824218743</ele>
<time>2014-06-01T21:05:09Z</time>
</trkpt>
<trkpt lat="46.96788801855918" lon="7.443274732677914">
<ele>507.99948242187435</ele>
<time>2014-06-01T21:05:17Z</time>
</trkpt>
<trkpt lat="46.96774501855918" lon="7.443168732677914">
<ele>508.78948242187437</ele>
<time>2014-06-01T21:05:21Z</time>
</trkpt>
<trkpt lat="46.96773401855918" lon="7.443160732677914">
<ele>508.83848242187435</ele>
<time>2014-06-01T21:05:21Z</time>
</trkpt>
<trkpt lat="46.96760701855918" lon="7.4430707326779135">
<ele>509.26848242187435</ele>
<time>2014-06-01T21:05:25Z</time>
</trkpt>
<trkpt lat="46.96749201855918" lon="7.442996732677914">
<ele>509.37948242187434</ele>
<time>2014-06-01T21:05:28Z</time>
</trkpt>
<trkpt lat="46.96741201855918" lon="7.442944732677914">
<ele>509.51848242187435</ele>
<time>2014-06-01T21:05:30Z</time>
</trkpt>
<trkpt lat="46.96739201855918" lon="7.442932732677914">
<ele>509.5294824218744</ele>
<time>2014-06-01T21:05:30Z</time>
</trkpt>
<trkpt lat="46.967270018559184" lon="7.442857732677914">
<ele>509.5094824218744</ele>
<time>2014-06-01T21:05:33Z</time>
</trkpt>
<trkpt lat="46.967129018559184" lon="7.442772732677914">
<ele>509.28948242187437</ele>
<time>2014-06-01T21:05:35Z</time>
</trkpt>
<trkpt lat="46.96703501855919" lon="7.442707732677913">
<ele>509.1594824218744</ele>
<time>2014-06-01T21:05:36Z</time>
</trkpt>
<trkpt lat="46.966839018559185" lon="7.442569732677914">
<ele>508.5284824218744</ele>
<time>2014-06-01T21:05:41Z</time>
</trkpt>
<trkpt lat="46.96654501855919" lon="7.442381732677914">
<ele>508.9994824218744</ele>
<time>2014-06-01T21:05:49Z</time>
</trkpt>
<trkpt lat="46.96643501855919" lon="7.442306732677914">
<ele>509.8494824218744</ele>
<time>2014-06-01T21:05:51Z</time>
</trkpt>
<trkpt lat="46.96624301855919" lon="7.442174732677914">
<ele>511.11848242187443</ele>
<time>2014-06-01T21:05:57Z</time>
</trkpt>
<trkpt lat="46.96591701855919" lon="7.441989732677914">
<ele>511.68948242187446</ele>
<time>2014-06-01T21:06:07Z</time>
</trkpt>
<trkpt lat="46.96590101855919" lon="7.441982732677914">
<ele>511.63948242187445</ele>
<time>2014-06-01T21:06:07Z</time>
</trkpt>
<trkpt lat="46.96581101855919" lon="7.441945732677914">
<ele>511.38948242187445</ele>
<time>2014-06-01T21:06:09Z</time>
</trkpt>
<trkpt lat="46.965828018559186" lon="7.441900732677914">
<ele>512.5894824218744</ele>
<time>2014-06-01T21:06:13Z</time>
</trkpt>
<trkpt lat="46.96579001855918" lon="7.4418577326779145">
<ele>513.0894824218744</ele>
<time>2014-06-01T21:06:15Z</time>
</trkpt>
<trkpt lat="46.965693018559186" lon="7.441759732677914">
<ele>513.8894824218744</ele>
<time>2014-06-01T21:06:18Z</time>
</trkpt>
<trkpt lat="46.96562501855919" lon="7.441720732677914">
<ele>513.6684824218744</ele>
<time>2014-06-01T21:06:21Z</time>
</trkpt>
<trkpt lat="46.96417001855919" lon="7.441166732677914">
<ele>508.22948242187437</ele>
<time>2014-06-01T21:07:08Z</time>
</trkpt>
<trkpt lat="46.96405401855919" lon="7.441086732677914">
<ele>508.9284824218744</ele>
<time>2014-06-01T21:07:12Z</time>
</trkpt>
<trkpt lat="46.96268101855919" lon="7.4398497326779145">
<ele>526.3294824218743</ele>
<time>2014-06-01T21:08:03Z</time>
</trkpt>
<trkpt lat="46.96172601855919" lon="7.439412732677915">
<ele>527.5484824218744</ele>
<time>2014-06-01T21:08:35Z</time>
</trkpt>
<trkpt lat="46.96162001855919" lon="7.439386732677915">
<ele>527.0894824218744</ele>
<time>2014-06-01T21:08:39Z</time>
</trkpt>
<trkpt lat="46.96158501855919" lon="7.4393797326779145">
<ele>526.8594824218744</ele>
<time>2014-06-01T21:08:40Z</time>
</trkpt>
<trkpt lat="46.96155601855919" lon="7.439476732677915">
<ele>523.7884824218744</ele>
<time>2014-06-01T21:08:41Z</time>
</trkpt>
<trkpt lat="46.96148001855919" lon="7.4394237326779145">
<ele>524.3894824218744</ele>
<time>2014-06-01T21:08:45Z</time>
</trkpt>
<trkpt lat="46.96128401855919" lon="7.439254732677915">
<ele>526.6084824218744</ele>
<time>2014-06-01T21:08:55Z</time>
</trkpt>
<trkpt lat="46.96126701855919" lon="7.439240732677915">
<ele>526.7494824218744</ele>
<time>2014-06-01T21:08:56Z</time>
</trkpt>
<trkpt lat="46.96121001855919" lon="7.439195732677915">
<ele>527.1994824218744</ele>
<time>2014-06-01T21:08:59Z</time>
</trkpt>
<trkpt lat="46.96115501855919" lon="7.439162732677914">
<ele>527.3594824218744</ele>
<time>2014-06-01T21:09:01Z</time>
</trkpt>
<trkpt lat="46.96108101855919" lon="7.4391257326779145">
<ele>527.4084824218744</ele>
<time>2014-06-01T21:09:02Z</time>
</trkpt>
<trkpt lat="46.96085401855919" lon="7.439071732677914">
<ele>525.9884824218744</ele>
<time>2014-06-01T21:09:04Z</time>
</trkpt>
<trkpt lat="46.960723018559186" lon="7.439076732677914">
<ele>524.2694824218744</ele>
<time>2014-06-01T21:09:06Z</time>
</trkpt>
<trkpt lat="46.96058201855919" lon="7.439112732677914">
<ele>521.5384824218744</ele>
<time>2014-06-01T21:09:08Z</time>
</trkpt>
<trkpt lat="46.96053001855919" lon="7.439132732677914">
<ele>520.3294824218744</ele>
<time>2014-06-01T21:09:08Z</time>
</trkpt>
<trkpt lat="46.96040701855919" lon="7.4391757326779135">
<ele>517.6894824218745</ele>
<time>2014-06-01T21:09:10Z</time>
</trkpt>
<trkpt lat="46.960172018559184" lon="7.439222732677914">
<ele>514.0294824218745</ele>
<time>2014-06-01T21:09:13Z</time>
</trkpt>
<trkpt lat="46.959753018559184" lon="7.439253732677914">
<ele>509.9094824218745</ele>
<time>2014-06-01T21:09:18Z</time>
</trkpt>
<trkpt lat="46.95940801855918" lon="7.439176732677914">
<ele>508.6084824218745</ele>
<time>2014-06-01T21:09:22Z</time>
</trkpt>
<trkpt lat="46.95931201855918" lon="7.439142732677913">
<ele>508.6594824218745</ele>
<time>2014-06-01T21:09:23Z</time>
</trkpt>
<trkpt lat="46.95912401855918" lon="7.439068732677914">
<ele>509.2894824218745</ele>
<time>2014-06-01T21:09:28Z</time>
</trkpt>
<trkpt lat="46.95913101855918" lon="7.439020732677914">
<ele>510.5094824218745</ele>
<time>2014-06-01T21:09:33Z</time>
</trkpt>
<trkpt lat="46.95917001855918" lon="7.438678732677914">
<ele>519.3194824218745</ele>
<time>2014-06-01T21:10:02Z</time>
</trkpt>
<trkpt lat="46.959185018559175" lon="7.438518732677914">
<ele>523.5094824218745</ele>
<time>2014-06-01T21:10:16Z</time>
</trkpt>
<trkpt lat="46.95918601855917" lon="7.438509732677914">
<ele>523.7384824218746</ele>
<time>2014-06-01T21:10:17Z</time>
</trkpt>
<trkpt lat="46.95918301855917" lon="7.438296732677914">
<ele>528.9684824218746</ele>
<time>2014-06-01T21:10:35Z</time>
</trkpt>
<trkpt lat="46.959163018559174" lon="7.438080732677914">
<ele>533.4184824218746</ele>
<time>2014-06-01T21:10:53Z</time>
</trkpt>
<trkpt lat="46.95915001855917" lon="7.437980732677914">
<ele>535.4794824218746</ele>
<time>2014-06-01T21:11:02Z</time>
</trkpt>
<trkpt lat="46.95913901855917" lon="7.4379247326779145">
<ele>536.5984824218747</ele>
<time>2014-06-01T21:11:04Z</time>
</trkpt>
<trkpt lat="46.95892301855917" lon="7.437024732677915">
<ele>550.5094824218746</ele>
<time>2014-06-01T21:11:49Z</time>
</trkpt>
<trkpt lat="46.95872401855917" lon="7.436223732677915">
<ele>556.4994824218746</ele>
<time>2014-06-01T21:12:29Z</time>
</trkpt>
<trkpt lat="46.95871001855917" lon="7.436171732677915">
<ele>556.7284824218747</ele>
<time>2014-06-01T21:12:30Z</time>
</trkpt>
<trkpt lat="46.958682018559166" lon="7.436123732677915">
<ele>556.8694824218746</ele>
<time>2014-06-01T21:12:32Z</time>
</trkpt>
<trkpt lat="46.95873501855917" lon="7.436078732677915">
<ele>557.4394824218747</ele>
<time>2014-06-01T21:12:35Z</time>
</trkpt>
<trkpt lat="46.95871401855917" lon="7.436014732677915">
<ele>557.7184824218747</ele>
<time>2014-06-01T21:12:36Z</time>
</trkpt>
<trkpt lat="46.95865401855917" lon="7.435894732677915">
<ele>558.1584824218747</ele>
<time>2014-06-01T21:12:38Z</time>
</trkpt>
<trkpt lat="46.95851901855917" lon="7.435657732677915">
<ele>558.0594824218747</ele>
<time>2014-06-01T21:12:43Z</time>
</trkpt>
<trkpt lat="46.958273018559176" lon="7.435168732677915">
<ele>557.5694824218747</ele>
<time>2014-06-01T21:12:50Z</time>
</trkpt>
<trkpt lat="46.95823201855917" lon="7.435089732677914">
<ele>557.5094824218747</ele>
<time>2014-06-01T21:12:51Z</time>
</trkpt>
<trkpt lat="46.958082018559175" lon="7.434801732677914">
<ele>557.3294824218748</ele>
<time>2014-06-01T21:12:55Z</time>
</trkpt>
<trkpt lat="46.95773401855917" lon="7.434098732677914">
<ele>556.8994824218748</ele>
<time>2014-06-01T21:13:04Z</time>
</trkpt>
<trkpt lat="46.957542018559174" lon="7.433707732677915">
<ele>556.6694824218748</ele>
<time>2014-06-01T21:13:09Z</time>
</trkpt>
<trkpt lat="46.95752601855917" lon="7.433675732677915">
<ele>556.6594824218748</ele>
<time>2014-06-01T21:13:10Z</time>
</trkpt>
<trkpt lat="46.95746201855917" lon="7.433551732677915">
<ele>556.5484824218748</ele>
<time>2014-06-01T21:13:11Z</time>
</trkpt>
<trkpt lat="46.95721201855917" lon="7.433068732677915">
<ele>555.9694824218749</ele>
<time>2014-06-01T21:13:17Z</time>
</trkpt>
<trkpt lat="46.95721201855917" lon="7.433068732677915">
<ele>555.9694824218749</ele>
<time>2014-06-01T21:13:17Z</time>
</trkpt>
</trkseg>
</trk>
</gpx>
